<?xml version="1.0" encoding="UTF-8" standalone="no" ?>
<gpx xmlns="http://www.topografix.com/GPX/1/1" xmlns:xsi="http://www.w3.org/2001/XMLSchema-instance" xsi:schemaLocation="http://www.topografix.com/GPX/1/1 http://www.topografix.com/GPX/1/1/gpx.xsd" version="1.1" creator="VisuGPX - https://www.visugpx.com">
  <metadata>
    <name>ébauche du 17 km</name>
    <desc><![CDATA[ébauche du 17 km]]></desc>
  </metadata>
  <trk>
    <name><![CDATA[Agnetz Course à pied]]></name>
    <trkseg>
      <trkpt lat="49.37835" lon="2.38728">
        <ele>103.19999694824</ele>
        <time>2015-08-30T07:15:01Z</time>
      </trkpt>
      <trkpt lat="49.37838" lon="2.3873">
        <ele>103</ele>
        <time>2015-08-30T07:15:03Z</time>
      </trkpt>
      <trkpt lat="49.37842" lon="2.38738">
        <ele>102.80000305176</ele>
        <time>2015-08-30T07:15:27Z</time>
      </trkpt>
      <trkpt lat="49.37842" lon="2.3875">
        <ele>103.59999847412</ele>
        <time>2015-08-30T07:15:34Z</time>
      </trkpt>
      <trkpt lat="49.37847" lon="2.38779">
        <ele>105.59999847412</ele>
        <time>2015-08-30T07:15:45Z</time>
      </trkpt>
      <trkpt lat="49.37852" lon="2.38807">
        <ele>107.59999847412</ele>
        <time>2015-08-30T07:15:56Z</time>
      </trkpt>
      <trkpt lat="49.37849" lon="2.38834">
        <ele>110.19999694824</ele>
        <time>2015-08-30T07:16:08Z</time>
      </trkpt>
      <trkpt lat="49.37844" lon="2.38864">
        <ele>114</ele>
        <time>2015-08-30T07:16:19Z</time>
      </trkpt>
      <trkpt lat="49.37839" lon="2.38889">
        <ele>117.40000152588</ele>
        <time>2015-08-30T07:16:29Z</time>
      </trkpt>
      <trkpt lat="49.37833" lon="2.38917">
        <ele>119.19999694824</ele>
        <time>2015-08-30T07:16:38Z</time>
      </trkpt>
      <trkpt lat="49.37832" lon="2.38945">
        <ele>119.80000305176</ele>
        <time>2015-08-30T07:16:47Z</time>
      </trkpt>
      <trkpt lat="49.37829" lon="2.38974">
        <ele>120.40000152588</ele>
        <time>2015-08-30T07:16:57Z</time>
      </trkpt>
      <trkpt lat="49.37825" lon="2.39002">
        <ele>121.40000152588</ele>
        <time>2015-08-30T07:17:08Z</time>
      </trkpt>
      <trkpt lat="49.37822" lon="2.39026">
        <ele>122.59999847412</ele>
        <time>2015-08-30T07:17:17Z</time>
      </trkpt>
      <trkpt lat="49.37818" lon="2.39055">
        <ele>124.59999847412</ele>
        <time>2015-08-30T07:17:26Z</time>
      </trkpt>
      <trkpt lat="49.37814" lon="2.39082">
        <ele>127</ele>
        <time>2015-08-30T07:17:36Z</time>
      </trkpt>
      <trkpt lat="49.37813" lon="2.39083">
        <ele>127.19999694824</ele>
        <time>2015-08-30T07:17:37Z</time>
      </trkpt>
      <trkpt lat="49.37807" lon="2.39084">
        <ele>128</ele>
        <time>2015-08-30T07:17:41Z</time>
      </trkpt>
      <trkpt lat="49.37787" lon="2.39089">
        <ele>130.19999694824</ele>
        <time>2015-08-30T07:17:54Z</time>
      </trkpt>
      <trkpt lat="49.37769" lon="2.39089">
        <ele>132.39999389648</ele>
        <time>2015-08-30T07:18:04Z</time>
      </trkpt>
      <trkpt lat="49.3775" lon="2.39087">
        <ele>134.60000610352</ele>
        <time>2015-08-30T07:18:18Z</time>
      </trkpt>
      <trkpt lat="49.37746" lon="2.39089">
        <ele>135.19999694824</ele>
        <time>2015-08-30T07:18:22Z</time>
      </trkpt>
      <trkpt lat="49.37727" lon="2.39086">
        <ele>137.39999389648</ele>
        <time>2015-08-30T07:18:34Z</time>
      </trkpt>
      <trkpt lat="49.3771" lon="2.39072">
        <ele>139</ele>
        <time>2015-08-30T07:18:46Z</time>
      </trkpt>
      <trkpt lat="49.37695" lon="2.39059">
        <ele>140.39999389648</ele>
        <time>2015-08-30T07:18:57Z</time>
      </trkpt>
      <trkpt lat="49.37677" lon="2.3905">
        <ele>143.60000610352</ele>
        <time>2015-08-30T07:19:06Z</time>
      </trkpt>
      <trkpt lat="49.37674" lon="2.39045">
        <ele>144.19999694824</ele>
        <time>2015-08-30T07:19:09Z</time>
      </trkpt>
      <trkpt lat="49.37659" lon="2.39029">
        <ele>146.39999389648</ele>
        <time>2015-08-30T07:19:23Z</time>
      </trkpt>
      <trkpt lat="49.37645" lon="2.39011">
        <ele>148.60000610352</ele>
        <time>2015-08-30T07:19:37Z</time>
      </trkpt>
      <trkpt lat="49.37634" lon="2.39002">
        <ele>150.19999694824</ele>
        <time>2015-08-30T07:19:46Z</time>
      </trkpt>
      <trkpt lat="49.37628" lon="2.38996">
        <ele>151.19999694824</ele>
        <time>2015-08-30T07:19:50Z</time>
      </trkpt>
      <trkpt lat="49.37614" lon="2.38983">
        <ele>153.60000610352</ele>
        <time>2015-08-30T07:20:01Z</time>
      </trkpt>
      <trkpt lat="49.37598" lon="2.38967">
        <ele>154</ele>
        <time>2015-08-30T07:20:14Z</time>
      </trkpt>
      <trkpt lat="49.37595" lon="2.38964">
        <ele>154.19999694824</ele>
        <time>2015-08-30T07:20:16Z</time>
      </trkpt>
      <trkpt lat="49.3758" lon="2.38948">
        <ele>154.39999389648</ele>
        <time>2015-08-30T07:20:25Z</time>
      </trkpt>
      <trkpt lat="49.37563" lon="2.38936">
        <ele>155</ele>
        <time>2015-08-30T07:20:35Z</time>
      </trkpt>
      <trkpt lat="49.37561" lon="2.38934">
        <ele>155</ele>
        <time>2015-08-30T07:20:37Z</time>
      </trkpt>
      <trkpt lat="49.37554" lon="2.38932">
        <ele>155.39999389648</ele>
        <time>2015-08-30T07:20:46Z</time>
      </trkpt>
      <trkpt lat="49.3755" lon="2.3893">
        <ele>155.39999389648</ele>
        <time>2015-08-30T07:20:53Z</time>
      </trkpt>
      <trkpt lat="49.37548" lon="2.38924">
        <ele>155.39999389648</ele>
        <time>2015-08-30T07:21:00Z</time>
      </trkpt>
      <trkpt lat="49.37544" lon="2.38897">
        <ele>155</ele>
        <time>2015-08-30T07:21:18Z</time>
      </trkpt>
      <trkpt lat="49.3754" lon="2.38868">
        <ele>154.39999389648</ele>
        <time>2015-08-30T07:21:27Z</time>
      </trkpt>
      <trkpt lat="49.37538" lon="2.38863">
        <ele>154.39999389648</ele>
        <time>2015-08-30T07:21:29Z</time>
      </trkpt>
      <trkpt lat="49.37532" lon="2.38836">
        <ele>154</ele>
        <time>2015-08-30T07:21:37Z</time>
      </trkpt>
      <trkpt lat="49.37531" lon="2.3883">
        <ele>154</ele>
        <time>2015-08-30T07:21:39Z</time>
      </trkpt>
      <trkpt lat="49.37529" lon="2.38801">
        <ele>154.39999389648</ele>
        <time>2015-08-30T07:21:48Z</time>
      </trkpt>
      <trkpt lat="49.37523" lon="2.38774">
        <ele>155</ele>
        <time>2015-08-30T07:21:56Z</time>
      </trkpt>
      <trkpt lat="49.37519" lon="2.38745">
        <ele>155.39999389648</ele>
        <time>2015-08-30T07:22:04Z</time>
      </trkpt>
      <trkpt lat="49.37513" lon="2.38717">
        <ele>155.39999389648</ele>
        <time>2015-08-30T07:22:12Z</time>
      </trkpt>
      <trkpt lat="49.37506" lon="2.38688">
        <ele>155.60000610352</ele>
        <time>2015-08-30T07:22:20Z</time>
      </trkpt>
      <trkpt lat="49.37503" lon="2.38657">
        <ele>155.60000610352</ele>
        <time>2015-08-30T07:22:28Z</time>
      </trkpt>
      <trkpt lat="49.37498" lon="2.38627">
        <ele>155.80000305176</ele>
        <time>2015-08-30T07:22:36Z</time>
      </trkpt>
      <trkpt lat="49.37496" lon="2.38599">
        <ele>156.19999694824</ele>
        <time>2015-08-30T07:22:43Z</time>
      </trkpt>
      <trkpt lat="49.37492" lon="2.38571">
        <ele>156.19999694824</ele>
        <time>2015-08-30T07:22:50Z</time>
      </trkpt>
      <trkpt lat="49.3749" lon="2.38542">
        <ele>155.60000610352</ele>
        <time>2015-08-30T07:22:58Z</time>
      </trkpt>
      <trkpt lat="49.37488" lon="2.38511">
        <ele>155.39999389648</ele>
        <time>2015-08-30T07:23:06Z</time>
      </trkpt>
      <trkpt lat="49.37486" lon="2.38482">
        <ele>155.60000610352</ele>
        <time>2015-08-30T07:23:14Z</time>
      </trkpt>
      <trkpt lat="49.37483" lon="2.38455">
        <ele>156</ele>
        <time>2015-08-30T07:23:21Z</time>
      </trkpt>
      <trkpt lat="49.37481" lon="2.38427">
        <ele>156</ele>
        <time>2015-08-30T07:23:28Z</time>
      </trkpt>
      <trkpt lat="49.37479" lon="2.38398">
        <ele>156</ele>
        <time>2015-08-30T07:23:35Z</time>
      </trkpt>
      <trkpt lat="49.37476" lon="2.38371">
        <ele>156</ele>
        <time>2015-08-30T07:23:42Z</time>
      </trkpt>
      <trkpt lat="49.37472" lon="2.38342">
        <ele>155.80000305176</ele>
        <time>2015-08-30T07:23:50Z</time>
      </trkpt>
      <trkpt lat="49.37469" lon="2.38311">
        <ele>155.19999694824</ele>
        <time>2015-08-30T07:23:58Z</time>
      </trkpt>
      <trkpt lat="49.37466" lon="2.38281">
        <ele>154.60000610352</ele>
        <time>2015-08-30T07:24:06Z</time>
      </trkpt>
      <trkpt lat="49.37462" lon="2.38254">
        <ele>154</ele>
        <time>2015-08-30T07:24:14Z</time>
      </trkpt>
      <trkpt lat="49.37457" lon="2.38224">
        <ele>153.80000305176</ele>
        <time>2015-08-30T07:24:22Z</time>
      </trkpt>
      <trkpt lat="49.37457" lon="2.38193">
        <ele>153.80000305176</ele>
        <time>2015-08-30T07:24:30Z</time>
      </trkpt>
      <trkpt lat="49.37458" lon="2.38164">
        <ele>153.60000610352</ele>
        <time>2015-08-30T07:24:37Z</time>
      </trkpt>
      <trkpt lat="49.3746" lon="2.38133">
        <ele>153</ele>
        <time>2015-08-30T07:24:45Z</time>
      </trkpt>
      <trkpt lat="49.37461" lon="2.38104">
        <ele>152.60000610352</ele>
        <time>2015-08-30T07:24:53Z</time>
      </trkpt>
      <trkpt lat="49.37462" lon="2.38074">
        <ele>152.39999389648</ele>
        <time>2015-08-30T07:25:01Z</time>
      </trkpt>
      <trkpt lat="49.37464" lon="2.38044">
        <ele>152.39999389648</ele>
        <time>2015-08-30T07:25:09Z</time>
      </trkpt>
      <trkpt lat="49.37466" lon="2.38013">
        <ele>152.39999389648</ele>
        <time>2015-08-30T07:25:17Z</time>
      </trkpt>
      <trkpt lat="49.3747" lon="2.37983">
        <ele>152.19999694824</ele>
        <time>2015-08-30T07:25:26Z</time>
      </trkpt>
      <trkpt lat="49.37474" lon="2.37953">
        <ele>152</ele>
        <time>2015-08-30T07:25:34Z</time>
      </trkpt>
      <trkpt lat="49.37485" lon="2.37926">
        <ele>151.60000610352</ele>
        <time>2015-08-30T07:25:41Z</time>
      </trkpt>
      <trkpt lat="49.37495" lon="2.37902">
        <ele>151.39999389648</ele>
        <time>2015-08-30T07:25:48Z</time>
      </trkpt>
      <trkpt lat="49.37507" lon="2.3788">
        <ele>151.19999694824</ele>
        <time>2015-08-30T07:25:55Z</time>
      </trkpt>
      <trkpt lat="49.37522" lon="2.37859">
        <ele>151</ele>
        <time>2015-08-30T07:26:03Z</time>
      </trkpt>
      <trkpt lat="49.37537" lon="2.37841">
        <ele>150.60000610352</ele>
        <time>2015-08-30T07:26:11Z</time>
      </trkpt>
      <trkpt lat="49.37552" lon="2.37821">
        <ele>150.80000305176</ele>
        <time>2015-08-30T07:26:19Z</time>
      </trkpt>
      <trkpt lat="49.37567" lon="2.378">
        <ele>151.19999694824</ele>
        <time>2015-08-30T07:26:27Z</time>
      </trkpt>
      <trkpt lat="49.37582" lon="2.37779">
        <ele>151.60000610352</ele>
        <time>2015-08-30T07:26:35Z</time>
      </trkpt>
      <trkpt lat="49.37596" lon="2.3776">
        <ele>152</ele>
        <time>2015-08-30T07:26:42Z</time>
      </trkpt>
      <trkpt lat="49.3761" lon="2.37741">
        <ele>152.19999694824</ele>
        <time>2015-08-30T07:26:49Z</time>
      </trkpt>
      <trkpt lat="49.37624" lon="2.37722">
        <ele>152.60000610352</ele>
        <time>2015-08-30T07:26:56Z</time>
      </trkpt>
      <trkpt lat="49.37637" lon="2.37702">
        <ele>152.80000305176</ele>
        <time>2015-08-30T07:27:03Z</time>
      </trkpt>
      <trkpt lat="49.3765" lon="2.37678">
        <ele>153.60000610352</ele>
        <time>2015-08-30T07:27:11Z</time>
      </trkpt>
      <trkpt lat="49.37661" lon="2.37656">
        <ele>154.60000610352</ele>
        <time>2015-08-30T07:27:18Z</time>
      </trkpt>
      <trkpt lat="49.37675" lon="2.37633">
        <ele>156.39999389648</ele>
        <time>2015-08-30T07:27:26Z</time>
      </trkpt>
      <trkpt lat="49.37689" lon="2.37616">
        <ele>158</ele>
        <time>2015-08-30T07:27:34Z</time>
      </trkpt>
      <trkpt lat="49.37701" lon="2.37592">
        <ele>160</ele>
        <time>2015-08-30T07:27:44Z</time>
      </trkpt>
      <trkpt lat="49.37707" lon="2.37565">
        <ele>161.39999389648</ele>
        <time>2015-08-30T07:27:53Z</time>
      </trkpt>
      <trkpt lat="49.37708" lon="2.37562">
        <ele>161.39999389648</ele>
        <time>2015-08-30T07:27:54Z</time>
      </trkpt>
      <trkpt lat="49.37713" lon="2.37545">
        <ele>162.19999694824</ele>
        <time>2015-08-30T07:28:02Z</time>
      </trkpt>
      <trkpt lat="49.37714" lon="2.37532">
        <ele>163</ele>
        <time>2015-08-30T07:28:07Z</time>
      </trkpt>
      <trkpt lat="49.37721" lon="2.37503">
        <ele>166</ele>
        <time>2015-08-30T07:28:14Z</time>
      </trkpt>
      <trkpt lat="49.37729" lon="2.37476">
        <ele>167</ele>
        <time>2015-08-30T07:28:21Z</time>
      </trkpt>
      <trkpt lat="49.37732" lon="2.37447">
        <ele>167.19999694824</ele>
        <time>2015-08-30T07:28:29Z</time>
      </trkpt>
      <trkpt lat="49.37735" lon="2.37419">
        <ele>167.80000305176</ele>
        <time>2015-08-30T07:28:35Z</time>
      </trkpt>
      <trkpt lat="49.37737" lon="2.37389">
        <ele>167.60000610352</ele>
        <time>2015-08-30T07:28:42Z</time>
      </trkpt>
      <trkpt lat="49.37739" lon="2.37359">
        <ele>167.39999389648</ele>
        <time>2015-08-30T07:28:49Z</time>
      </trkpt>
      <trkpt lat="49.37742" lon="2.37331">
        <ele>167</ele>
        <time>2015-08-30T07:28:56Z</time>
      </trkpt>
      <trkpt lat="49.37746" lon="2.37302">
        <ele>167</ele>
        <time>2015-08-30T07:29:03Z</time>
      </trkpt>
      <trkpt lat="49.37751" lon="2.37272">
        <ele>166.39999389648</ele>
        <time>2015-08-30T07:29:12Z</time>
      </trkpt>
      <trkpt lat="49.37756" lon="2.37244">
        <ele>165.60000610352</ele>
        <time>2015-08-30T07:29:19Z</time>
      </trkpt>
      <trkpt lat="49.37755" lon="2.37236">
        <ele>165.39999389648</ele>
        <time>2015-08-30T07:29:21Z</time>
      </trkpt>
      <trkpt lat="49.3774" lon="2.37215">
        <ele>165.19999694824</ele>
        <time>2015-08-30T07:29:29Z</time>
      </trkpt>
      <trkpt lat="49.37728" lon="2.37192">
        <ele>165</ele>
        <time>2015-08-30T07:29:37Z</time>
      </trkpt>
      <trkpt lat="49.37716" lon="2.37169">
        <ele>164.80000305176</ele>
        <time>2015-08-30T07:29:45Z</time>
      </trkpt>
      <trkpt lat="49.37705" lon="2.37143">
        <ele>164.39999389648</ele>
        <time>2015-08-30T07:29:54Z</time>
      </trkpt>
      <trkpt lat="49.37692" lon="2.37123">
        <ele>164</ele>
        <time>2015-08-30T07:30:01Z</time>
      </trkpt>
      <trkpt lat="49.37683" lon="2.37096">
        <ele>163.60000610352</ele>
        <time>2015-08-30T07:30:09Z</time>
      </trkpt>
      <trkpt lat="49.37687" lon="2.37065">
        <ele>163.19999694824</ele>
        <time>2015-08-30T07:30:16Z</time>
      </trkpt>
      <trkpt lat="49.3769" lon="2.37037">
        <ele>163.19999694824</ele>
        <time>2015-08-30T07:30:23Z</time>
      </trkpt>
      <trkpt lat="49.37694" lon="2.37005">
        <ele>163.19999694824</ele>
        <time>2015-08-30T07:30:30Z</time>
      </trkpt>
      <trkpt lat="49.37696" lon="2.36978">
        <ele>163</ele>
        <time>2015-08-30T07:30:37Z</time>
      </trkpt>
      <trkpt lat="49.377" lon="2.36947">
        <ele>163</ele>
        <time>2015-08-30T07:30:44Z</time>
      </trkpt>
      <trkpt lat="49.37702" lon="2.36918">
        <ele>163</ele>
        <time>2015-08-30T07:30:51Z</time>
      </trkpt>
      <trkpt lat="49.37704" lon="2.36889">
        <ele>163.39999389648</ele>
        <time>2015-08-30T07:30:58Z</time>
      </trkpt>
      <trkpt lat="49.37708" lon="2.3686">
        <ele>163.80000305176</ele>
        <time>2015-08-30T07:31:06Z</time>
      </trkpt>
      <trkpt lat="49.37707" lon="2.3683">
        <ele>164.60000610352</ele>
        <time>2015-08-30T07:31:15Z</time>
      </trkpt>
      <trkpt lat="49.37708" lon="2.36802">
        <ele>163.80000305176</ele>
        <time>2015-08-30T07:31:23Z</time>
      </trkpt>
      <trkpt lat="49.3771" lon="2.36773">
        <ele>163</ele>
        <time>2015-08-30T07:31:32Z</time>
      </trkpt>
      <trkpt lat="49.37711" lon="2.36742">
        <ele>162.39999389648</ele>
        <time>2015-08-30T07:31:40Z</time>
      </trkpt>
      <trkpt lat="49.37716" lon="2.36713">
        <ele>161.60000610352</ele>
        <time>2015-08-30T07:31:48Z</time>
      </trkpt>
      <trkpt lat="49.37721" lon="2.36684">
        <ele>161</ele>
        <time>2015-08-30T07:31:56Z</time>
      </trkpt>
      <trkpt lat="49.37727" lon="2.36656">
        <ele>159.60000610352</ele>
        <time>2015-08-30T07:32:03Z</time>
      </trkpt>
      <trkpt lat="49.3773" lon="2.36629">
        <ele>158</ele>
        <time>2015-08-30T07:32:09Z</time>
      </trkpt>
      <trkpt lat="49.37733" lon="2.366">
        <ele>156.80000305176</ele>
        <time>2015-08-30T07:32:16Z</time>
      </trkpt>
      <trkpt lat="49.37737" lon="2.36572">
        <ele>155.19999694824</ele>
        <time>2015-08-30T07:32:22Z</time>
      </trkpt>
      <trkpt lat="49.3774" lon="2.36542">
        <ele>152.19999694824</ele>
        <time>2015-08-30T07:32:28Z</time>
      </trkpt>
      <trkpt lat="49.37743" lon="2.36514">
        <ele>151.80000305176</ele>
        <time>2015-08-30T07:32:34Z</time>
      </trkpt>
      <trkpt lat="49.37747" lon="2.36484">
        <ele>152.39999389648</ele>
        <time>2015-08-30T07:32:41Z</time>
      </trkpt>
      <trkpt lat="49.37751" lon="2.36453">
        <ele>153</ele>
        <time>2015-08-30T07:32:47Z</time>
      </trkpt>
      <trkpt lat="49.37754" lon="2.36425">
        <ele>152.19999694824</ele>
        <time>2015-08-30T07:32:53Z</time>
      </trkpt>
      <trkpt lat="49.37756" lon="2.36396">
        <ele>152.60000610352</ele>
        <time>2015-08-30T07:33:00Z</time>
      </trkpt>
      <trkpt lat="49.37759" lon="2.36365">
        <ele>153.19999694824</ele>
        <time>2015-08-30T07:33:07Z</time>
      </trkpt>
      <trkpt lat="49.37761" lon="2.36337">
        <ele>153.80000305176</ele>
        <time>2015-08-30T07:33:14Z</time>
      </trkpt>
      <trkpt lat="49.37763" lon="2.36307">
        <ele>154</ele>
        <time>2015-08-30T07:33:21Z</time>
      </trkpt>
      <trkpt lat="49.37767" lon="2.36277">
        <ele>154.19999694824</ele>
        <time>2015-08-30T07:33:28Z</time>
      </trkpt>
      <trkpt lat="49.37771" lon="2.3625">
        <ele>154.39999389648</ele>
        <time>2015-08-30T07:33:35Z</time>
      </trkpt>
      <trkpt lat="49.37774" lon="2.3622">
        <ele>155</ele>
        <time>2015-08-30T07:33:41Z</time>
      </trkpt>
      <trkpt lat="49.37774" lon="2.36191">
        <ele>155.80000305176</ele>
        <time>2015-08-30T07:33:48Z</time>
      </trkpt>
      <trkpt lat="49.37779" lon="2.36162">
        <ele>156</ele>
        <time>2015-08-30T07:33:55Z</time>
      </trkpt>
      <trkpt lat="49.37783" lon="2.36135">
        <ele>155.80000305176</ele>
        <time>2015-08-30T07:34:02Z</time>
      </trkpt>
      <trkpt lat="49.37787" lon="2.36107">
        <ele>155.39999389648</ele>
        <time>2015-08-30T07:34:09Z</time>
      </trkpt>
      <trkpt lat="49.3779" lon="2.36078">
        <ele>155.39999389648</ele>
        <time>2015-08-30T07:34:17Z</time>
      </trkpt>
      <trkpt lat="49.37792" lon="2.36049">
        <ele>156.19999694824</ele>
        <time>2015-08-30T07:34:25Z</time>
      </trkpt>
      <trkpt lat="49.37795" lon="2.36021">
        <ele>156.80000305176</ele>
        <time>2015-08-30T07:34:33Z</time>
      </trkpt>
      <trkpt lat="49.37799" lon="2.35992">
        <ele>157.60000610352</ele>
        <time>2015-08-30T07:34:41Z</time>
      </trkpt>
      <trkpt lat="49.37804" lon="2.35963">
        <ele>157</ele>
        <time>2015-08-30T07:34:49Z</time>
      </trkpt>
      <trkpt lat="49.37805" lon="2.35934">
        <ele>156.80000305176</ele>
        <time>2015-08-30T07:34:57Z</time>
      </trkpt>
      <trkpt lat="49.37801" lon="2.35905">
        <ele>157.60000610352</ele>
        <time>2015-08-30T07:35:04Z</time>
      </trkpt>
      <trkpt lat="49.37799" lon="2.35876">
        <ele>156.80000305176</ele>
        <time>2015-08-30T07:35:11Z</time>
      </trkpt>
      <trkpt lat="49.37794" lon="2.35846">
        <ele>156.19999694824</ele>
        <time>2015-08-30T07:35:19Z</time>
      </trkpt>
      <trkpt lat="49.37792" lon="2.35816">
        <ele>156.39999389648</ele>
        <time>2015-08-30T07:35:26Z</time>
      </trkpt>
      <trkpt lat="49.37791" lon="2.35788">
        <ele>157.19999694824</ele>
        <time>2015-08-30T07:35:33Z</time>
      </trkpt>
      <trkpt lat="49.37789" lon="2.35763">
        <ele>157.80000305176</ele>
        <time>2015-08-30T07:35:40Z</time>
      </trkpt>
      <trkpt lat="49.37789" lon="2.35735">
        <ele>157.39999389648</ele>
        <time>2015-08-30T07:35:47Z</time>
      </trkpt>
      <trkpt lat="49.3779" lon="2.35707">
        <ele>156.39999389648</ele>
        <time>2015-08-30T07:35:54Z</time>
      </trkpt>
      <trkpt lat="49.37789" lon="2.35678">
        <ele>155.39999389648</ele>
        <time>2015-08-30T07:36:01Z</time>
      </trkpt>
      <trkpt lat="49.37784" lon="2.35652">
        <ele>154</ele>
        <time>2015-08-30T07:36:10Z</time>
      </trkpt>
      <trkpt lat="49.37782" lon="2.35649">
        <ele>153.80000305176</ele>
        <time>2015-08-30T07:36:15Z</time>
      </trkpt>
      <trkpt lat="49.37779" lon="2.3564">
        <ele>153.60000610352</ele>
        <time>2015-08-30T07:36:27Z</time>
      </trkpt>
      <trkpt lat="49.3778" lon="2.3564">
        <ele>153.39999389648</ele>
        <time>2015-08-30T07:37:12Z</time>
      </trkpt>
      <trkpt lat="49.37767" lon="2.35617">
        <ele>153.19999694824</ele>
        <time>2015-08-30T07:37:22Z</time>
      </trkpt>
      <trkpt lat="49.37755" lon="2.35595">
        <ele>152.80000305176</ele>
        <time>2015-08-30T07:37:29Z</time>
      </trkpt>
      <trkpt lat="49.37741" lon="2.35577">
        <ele>153.39999389648</ele>
        <time>2015-08-30T07:37:36Z</time>
      </trkpt>
      <trkpt lat="49.37728" lon="2.35554">
        <ele>154.80000305176</ele>
        <time>2015-08-30T07:37:45Z</time>
      </trkpt>
      <trkpt lat="49.37716" lon="2.35532">
        <ele>156</ele>
        <time>2015-08-30T07:37:53Z</time>
      </trkpt>
      <trkpt lat="49.37708" lon="2.35505">
        <ele>157</ele>
        <time>2015-08-30T07:38:03Z</time>
      </trkpt>
      <trkpt lat="49.37707" lon="2.35501">
        <ele>157.39999389648</ele>
        <time>2015-08-30T07:38:04Z</time>
      </trkpt>
      <trkpt lat="49.37695" lon="2.35475">
        <ele>159.60000610352</ele>
        <time>2015-08-30T07:38:14Z</time>
      </trkpt>
      <trkpt lat="49.37686" lon="2.35451">
        <ele>161.60000610352</ele>
        <time>2015-08-30T07:38:22Z</time>
      </trkpt>
      <trkpt lat="49.37685" lon="2.35447">
        <ele>162</ele>
        <time>2015-08-30T07:38:23Z</time>
      </trkpt>
      <trkpt lat="49.37685" lon="2.3543">
        <ele>163.19999694824</ele>
        <time>2015-08-30T07:38:28Z</time>
      </trkpt>
      <trkpt lat="49.37693" lon="2.35402">
        <ele>164.60000610352</ele>
        <time>2015-08-30T07:38:36Z</time>
      </trkpt>
      <trkpt lat="49.37703" lon="2.35377">
        <ele>165.60000610352</ele>
        <time>2015-08-30T07:38:43Z</time>
      </trkpt>
      <trkpt lat="49.37717" lon="2.35354">
        <ele>166.19999694824</ele>
        <time>2015-08-30T07:38:51Z</time>
      </trkpt>
      <trkpt lat="49.37731" lon="2.35334">
        <ele>166.19999694824</ele>
        <time>2015-08-30T07:38:58Z</time>
      </trkpt>
      <trkpt lat="49.37742" lon="2.3531">
        <ele>165.80000305176</ele>
        <time>2015-08-30T07:39:05Z</time>
      </trkpt>
      <trkpt lat="49.37755" lon="2.35288">
        <ele>165.60000610352</ele>
        <time>2015-08-30T07:39:13Z</time>
      </trkpt>
      <trkpt lat="49.37768" lon="2.35265">
        <ele>165.80000305176</ele>
        <time>2015-08-30T07:39:22Z</time>
      </trkpt>
      <trkpt lat="49.37769" lon="2.35263">
        <ele>166</ele>
        <time>2015-08-30T07:39:23Z</time>
      </trkpt>
      <trkpt lat="49.3778" lon="2.3524">
        <ele>166.19999694824</ele>
        <time>2015-08-30T07:39:31Z</time>
      </trkpt>
      <trkpt lat="49.37782" lon="2.35236">
        <ele>166.19999694824</ele>
        <time>2015-08-30T07:39:32Z</time>
      </trkpt>
      <trkpt lat="49.37791" lon="2.35211">
        <ele>165.80000305176</ele>
        <time>2015-08-30T07:39:40Z</time>
      </trkpt>
      <trkpt lat="49.37792" lon="2.35183">
        <ele>166.39999389648</ele>
        <time>2015-08-30T07:39:48Z</time>
      </trkpt>
      <trkpt lat="49.37794" lon="2.35178">
        <ele>166.39999389648</ele>
        <time>2015-08-30T07:39:49Z</time>
      </trkpt>
      <trkpt lat="49.37799" lon="2.35165">
        <ele>166.60000610352</ele>
        <time>2015-08-30T07:39:53Z</time>
      </trkpt>
      <trkpt lat="49.37805" lon="2.35139">
        <ele>167.19999694824</ele>
        <time>2015-08-30T07:40:00Z</time>
      </trkpt>
      <trkpt lat="49.37815" lon="2.35114">
        <ele>167.39999389648</ele>
        <time>2015-08-30T07:40:07Z</time>
      </trkpt>
      <trkpt lat="49.37823" lon="2.35089">
        <ele>168.39999389648</ele>
        <time>2015-08-30T07:40:15Z</time>
      </trkpt>
      <trkpt lat="49.37836" lon="2.35067">
        <ele>168.19999694824</ele>
        <time>2015-08-30T07:40:23Z</time>
      </trkpt>
      <trkpt lat="49.37848" lon="2.35045">
        <ele>167.60000610352</ele>
        <time>2015-08-30T07:40:30Z</time>
      </trkpt>
      <trkpt lat="49.37856" lon="2.35017">
        <ele>167.39999389648</ele>
        <time>2015-08-30T07:40:37Z</time>
      </trkpt>
      <trkpt lat="49.37868" lon="2.34993">
        <ele>166.80000305176</ele>
        <time>2015-08-30T07:40:44Z</time>
      </trkpt>
      <trkpt lat="49.37876" lon="2.34965">
        <ele>165.80000305176</ele>
        <time>2015-08-30T07:40:51Z</time>
      </trkpt>
      <trkpt lat="49.37886" lon="2.34942">
        <ele>164.80000305176</ele>
        <time>2015-08-30T07:40:58Z</time>
      </trkpt>
      <trkpt lat="49.37898" lon="2.34917">
        <ele>164.39999389648</ele>
        <time>2015-08-30T07:41:05Z</time>
      </trkpt>
      <trkpt lat="49.37907" lon="2.34889">
        <ele>163</ele>
        <time>2015-08-30T07:41:13Z</time>
      </trkpt>
      <trkpt lat="49.37916" lon="2.34862">
        <ele>162</ele>
        <time>2015-08-30T07:41:20Z</time>
      </trkpt>
      <trkpt lat="49.37925" lon="2.34836">
        <ele>161</ele>
        <time>2015-08-30T07:41:26Z</time>
      </trkpt>
      <trkpt lat="49.37929" lon="2.34805">
        <ele>159.19999694824</ele>
        <time>2015-08-30T07:41:33Z</time>
      </trkpt>
      <trkpt lat="49.37931" lon="2.34775">
        <ele>157.80000305176</ele>
        <time>2015-08-30T07:41:39Z</time>
      </trkpt>
      <trkpt lat="49.37931" lon="2.34743">
        <ele>156.39999389648</ele>
        <time>2015-08-30T07:41:46Z</time>
      </trkpt>
      <trkpt lat="49.37928" lon="2.34714">
        <ele>156.39999389648</ele>
        <time>2015-08-30T07:41:54Z</time>
      </trkpt>
      <trkpt lat="49.37929" lon="2.34711">
        <ele>156.39999389648</ele>
        <time>2015-08-30T07:41:55Z</time>
      </trkpt>
      <trkpt lat="49.37936" lon="2.34714">
        <ele>156.19999694824</ele>
        <time>2015-08-30T07:42:00Z</time>
      </trkpt>
      <trkpt lat="49.37938" lon="2.34723">
        <ele>156.19999694824</ele>
        <time>2015-08-30T07:42:04Z</time>
      </trkpt>
      <trkpt lat="49.37948" lon="2.34746">
        <ele>156</ele>
        <time>2015-08-30T07:42:14Z</time>
      </trkpt>
      <trkpt lat="49.37949" lon="2.34749">
        <ele>156</ele>
        <time>2015-08-30T07:42:15Z</time>
      </trkpt>
      <trkpt lat="49.37961" lon="2.3477">
        <ele>155.39999389648</ele>
        <time>2015-08-30T07:42:22Z</time>
      </trkpt>
      <trkpt lat="49.37971" lon="2.34795">
        <ele>155.60000610352</ele>
        <time>2015-08-30T07:42:30Z</time>
      </trkpt>
      <trkpt lat="49.37979" lon="2.3482">
        <ele>155.80000305176</ele>
        <time>2015-08-30T07:42:38Z</time>
      </trkpt>
      <trkpt lat="49.37985" lon="2.34844">
        <ele>156.19999694824</ele>
        <time>2015-08-30T07:42:46Z</time>
      </trkpt>
      <trkpt lat="49.37998" lon="2.34868">
        <ele>155.80000305176</ele>
        <time>2015-08-30T07:42:53Z</time>
      </trkpt>
      <trkpt lat="49.38011" lon="2.34892">
        <ele>155.39999389648</ele>
        <time>2015-08-30T07:43:00Z</time>
      </trkpt>
      <trkpt lat="49.38021" lon="2.34916">
        <ele>155</ele>
        <time>2015-08-30T07:43:07Z</time>
      </trkpt>
      <trkpt lat="49.3803" lon="2.34939">
        <ele>154.39999389648</ele>
        <time>2015-08-30T07:43:14Z</time>
      </trkpt>
      <trkpt lat="49.38041" lon="2.34963">
        <ele>153</ele>
        <time>2015-08-30T07:43:21Z</time>
      </trkpt>
      <trkpt lat="49.38044" lon="2.34992">
        <ele>152.80000305176</ele>
        <time>2015-08-30T07:43:29Z</time>
      </trkpt>
      <trkpt lat="49.38048" lon="2.3502">
        <ele>153.19999694824</ele>
        <time>2015-08-30T07:43:37Z</time>
      </trkpt>
      <trkpt lat="49.38062" lon="2.35042">
        <ele>151.60000610352</ele>
        <time>2015-08-30T07:43:44Z</time>
      </trkpt>
      <trkpt lat="49.38077" lon="2.35058">
        <ele>150</ele>
        <time>2015-08-30T07:43:51Z</time>
      </trkpt>
      <trkpt lat="49.38093" lon="2.35076">
        <ele>148.39999389648</ele>
        <time>2015-08-30T07:43:59Z</time>
      </trkpt>
      <trkpt lat="49.38108" lon="2.35091">
        <ele>146.39999389648</ele>
        <time>2015-08-30T07:44:06Z</time>
      </trkpt>
      <trkpt lat="49.38125" lon="2.35109">
        <ele>143.80000305176</ele>
        <time>2015-08-30T07:44:14Z</time>
      </trkpt>
      <trkpt lat="49.38141" lon="2.35125">
        <ele>141.19999694824</ele>
        <time>2015-08-30T07:44:21Z</time>
      </trkpt>
      <trkpt lat="49.38157" lon="2.35139">
        <ele>138.60000610352</ele>
        <time>2015-08-30T07:44:27Z</time>
      </trkpt>
      <trkpt lat="49.38172" lon="2.35155">
        <ele>136</ele>
        <time>2015-08-30T07:44:34Z</time>
      </trkpt>
      <trkpt lat="49.38189" lon="2.35171">
        <ele>132.60000610352</ele>
        <time>2015-08-30T07:44:41Z</time>
      </trkpt>
      <trkpt lat="49.38208" lon="2.35181">
        <ele>128.60000610352</ele>
        <time>2015-08-30T07:44:50Z</time>
      </trkpt>
      <trkpt lat="49.38228" lon="2.3518">
        <ele>125.40000152588</ele>
        <time>2015-08-30T07:44:58Z</time>
      </trkpt>
      <trkpt lat="49.38229" lon="2.35179">
        <ele>125.40000152588</ele>
        <time>2015-08-30T07:44:59Z</time>
      </trkpt>
      <trkpt lat="49.38229" lon="2.35168">
        <ele>126.59999847412</ele>
        <time>2015-08-30T07:45:03Z</time>
      </trkpt>
      <trkpt lat="49.38224" lon="2.35141">
        <ele>128</ele>
        <time>2015-08-30T07:45:12Z</time>
      </trkpt>
      <trkpt lat="49.3822" lon="2.35112">
        <ele>128.60000610352</ele>
        <time>2015-08-30T07:45:21Z</time>
      </trkpt>
      <trkpt lat="49.38217" lon="2.35084">
        <ele>129.19999694824</ele>
        <time>2015-08-30T07:45:29Z</time>
      </trkpt>
      <trkpt lat="49.38216" lon="2.35054">
        <ele>127.80000305176</ele>
        <time>2015-08-30T07:45:37Z</time>
      </trkpt>
      <trkpt lat="49.38216" lon="2.35024">
        <ele>126</ele>
        <time>2015-08-30T07:45:45Z</time>
      </trkpt>
      <trkpt lat="49.3822" lon="2.34997">
        <ele>124.59999847412</ele>
        <time>2015-08-30T07:45:52Z</time>
      </trkpt>
      <trkpt lat="49.3822" lon="2.34968">
        <ele>123</ele>
        <time>2015-08-30T07:45:59Z</time>
      </trkpt>
      <trkpt lat="49.38222" lon="2.34941">
        <ele>121</ele>
        <time>2015-08-30T07:46:06Z</time>
      </trkpt>
      <trkpt lat="49.38225" lon="2.34912">
        <ele>118.59999847412</ele>
        <time>2015-08-30T07:46:13Z</time>
      </trkpt>
      <trkpt lat="49.38231" lon="2.34884">
        <ele>116.59999847412</ele>
        <time>2015-08-30T07:46:21Z</time>
      </trkpt>
      <trkpt lat="49.38226" lon="2.34857">
        <ele>115.80000305176</ele>
        <time>2015-08-30T07:46:28Z</time>
      </trkpt>
      <trkpt lat="49.38211" lon="2.34838">
        <ele>116.40000152588</ele>
        <time>2015-08-30T07:46:35Z</time>
      </trkpt>
      <trkpt lat="49.38196" lon="2.34819">
        <ele>117.80000305176</ele>
        <time>2015-08-30T07:46:43Z</time>
      </trkpt>
      <trkpt lat="49.38185" lon="2.34796">
        <ele>118.80000305176</ele>
        <time>2015-08-30T07:46:51Z</time>
      </trkpt>
      <trkpt lat="49.38183" lon="2.34783">
        <ele>118.40000152588</ele>
        <time>2015-08-30T07:46:55Z</time>
      </trkpt>
      <trkpt lat="49.38186" lon="2.34761">
        <ele>116.80000305176</ele>
        <time>2015-08-30T07:47:02Z</time>
      </trkpt>
      <trkpt lat="49.38185" lon="2.34749">
        <ele>116.40000152588</ele>
        <time>2015-08-30T07:47:05Z</time>
      </trkpt>
      <trkpt lat="49.3818" lon="2.3472">
        <ele>116.80000305176</ele>
        <time>2015-08-30T07:47:11Z</time>
      </trkpt>
      <trkpt lat="49.3818" lon="2.34702">
        <ele>117</ele>
        <time>2015-08-30T07:47:15Z</time>
      </trkpt>
      <trkpt lat="49.38176" lon="2.34675">
        <ele>117.80000305176</ele>
        <time>2015-08-30T07:47:21Z</time>
      </trkpt>
      <trkpt lat="49.38174" lon="2.34645">
        <ele>117.40000152588</ele>
        <time>2015-08-30T07:47:29Z</time>
      </trkpt>
      <trkpt lat="49.38169" lon="2.34615">
        <ele>117.19999694824</ele>
        <time>2015-08-30T07:47:37Z</time>
      </trkpt>
      <trkpt lat="49.38158" lon="2.3459">
        <ele>117.59999847412</ele>
        <time>2015-08-30T07:47:45Z</time>
      </trkpt>
      <trkpt lat="49.38159" lon="2.34561">
        <ele>116.40000152588</ele>
        <time>2015-08-30T07:47:54Z</time>
      </trkpt>
      <trkpt lat="49.38161" lon="2.34533">
        <ele>115.19999694824</ele>
        <time>2015-08-30T07:48:01Z</time>
      </trkpt>
      <trkpt lat="49.38162" lon="2.34529">
        <ele>115</ele>
        <time>2015-08-30T07:48:02Z</time>
      </trkpt>
      <trkpt lat="49.38165" lon="2.34503">
        <ele>114.19999694824</ele>
        <time>2015-08-30T07:48:08Z</time>
      </trkpt>
      <trkpt lat="49.38167" lon="2.34474">
        <ele>113</ele>
        <time>2015-08-30T07:48:15Z</time>
      </trkpt>
      <trkpt lat="49.38174" lon="2.34445">
        <ele>111.40000152588</ele>
        <time>2015-08-30T07:48:22Z</time>
      </trkpt>
      <trkpt lat="49.38177" lon="2.34436">
        <ele>110.80000305176</ele>
        <time>2015-08-30T07:48:26Z</time>
      </trkpt>
      <trkpt lat="49.38189" lon="2.34433">
        <ele>109.40000152588</ele>
        <time>2015-08-30T07:48:32Z</time>
      </trkpt>
      <trkpt lat="49.38209" lon="2.34434">
        <ele>108</ele>
        <time>2015-08-30T07:48:44Z</time>
      </trkpt>
      <trkpt lat="49.3822" lon="2.34458">
        <ele>108.19999694824</ele>
        <time>2015-08-30T07:48:53Z</time>
      </trkpt>
      <trkpt lat="49.38233" lon="2.34483">
        <ele>108.40000152588</ele>
        <time>2015-08-30T07:49:00Z</time>
      </trkpt>
      <trkpt lat="49.38246" lon="2.34505">
        <ele>108</ele>
        <time>2015-08-30T07:49:07Z</time>
      </trkpt>
      <trkpt lat="49.3826" lon="2.34529">
        <ele>106.19999694824</ele>
        <time>2015-08-30T07:49:14Z</time>
      </trkpt>
      <trkpt lat="49.38272" lon="2.34556">
        <ele>104.59999847412</ele>
        <time>2015-08-30T07:49:20Z</time>
      </trkpt>
      <trkpt lat="49.38283" lon="2.34581">
        <ele>103.19999694824</ele>
        <time>2015-08-30T07:49:27Z</time>
      </trkpt>
      <trkpt lat="49.38286" lon="2.34584">
        <ele>103.59999847412</ele>
        <time>2015-08-30T07:49:29Z</time>
      </trkpt>
      <trkpt lat="49.38293" lon="2.34577">
        <ele>105.40000152588</ele>
        <time>2015-08-30T07:49:33Z</time>
      </trkpt>
      <trkpt lat="49.38297" lon="2.34551">
        <ele>107.40000152588</ele>
        <time>2015-08-30T07:49:42Z</time>
      </trkpt>
      <trkpt lat="49.38299" lon="2.34522">
        <ele>109.19999694824</ele>
        <time>2015-08-30T07:49:53Z</time>
      </trkpt>
      <trkpt lat="49.383" lon="2.34509">
        <ele>110.19999694824</ele>
        <time>2015-08-30T07:49:59Z</time>
      </trkpt>
      <trkpt lat="49.38304" lon="2.34482">
        <ele>113.40000152588</ele>
        <time>2015-08-30T07:50:14Z</time>
      </trkpt>
      <trkpt lat="49.38309" lon="2.34455">
        <ele>116.80000305176</ele>
        <time>2015-08-30T07:50:31Z</time>
      </trkpt>
      <trkpt lat="49.3831" lon="2.34426">
        <ele>119</ele>
        <time>2015-08-30T07:50:41Z</time>
      </trkpt>
      <trkpt lat="49.38313" lon="2.34417">
        <ele>119.80000305176</ele>
        <time>2015-08-30T07:50:45Z</time>
      </trkpt>
      <trkpt lat="49.38318" lon="2.344">
        <ele>123.40000152588</ele>
        <time>2015-08-30T07:50:56Z</time>
      </trkpt>
      <trkpt lat="49.38325" lon="2.34375">
        <ele>129</ele>
        <time>2015-08-30T07:51:21Z</time>
      </trkpt>
      <trkpt lat="49.38326" lon="2.34374">
        <ele>129.19999694824</ele>
        <time>2015-08-30T07:51:22Z</time>
      </trkpt>
      <trkpt lat="49.38334" lon="2.34357">
        <ele>131.80000305176</ele>
        <time>2015-08-30T07:51:48Z</time>
      </trkpt>
      <trkpt lat="49.38338" lon="2.34325">
        <ele>135.60000610352</ele>
        <time>2015-08-30T07:53:02Z</time>
      </trkpt>
      <trkpt lat="49.38339" lon="2.34321">
        <ele>136</ele>
        <time>2015-08-30T07:53:03Z</time>
      </trkpt>
      <trkpt lat="49.3834" lon="2.34313">
        <ele>137.19999694824</ele>
        <time>2015-08-30T07:53:06Z</time>
      </trkpt>
      <trkpt lat="49.38343" lon="2.34294">
        <ele>139.39999389648</ele>
        <time>2015-08-30T07:53:13Z</time>
      </trkpt>
      <trkpt lat="49.38337" lon="2.34267">
        <ele>141.39999389648</ele>
        <time>2015-08-30T07:53:28Z</time>
      </trkpt>
      <trkpt lat="49.38343" lon="2.34244">
        <ele>144.19999694824</ele>
        <time>2015-08-30T07:53:50Z</time>
      </trkpt>
      <trkpt lat="49.38357" lon="2.34278">
        <ele>142.39999389648</ele>
        <time>2015-08-30T07:54:54Z</time>
      </trkpt>
      <trkpt lat="49.38357" lon="2.34281">
        <ele>142</ele>
        <time>2015-08-30T07:54:55Z</time>
      </trkpt>
      <trkpt lat="49.38357" lon="2.34291">
        <ele>141</ele>
        <time>2015-08-30T07:54:58Z</time>
      </trkpt>
      <trkpt lat="49.38354" lon="2.34309">
        <ele>139</ele>
        <time>2015-08-30T07:55:04Z</time>
      </trkpt>
      <trkpt lat="49.38359" lon="2.34318">
        <ele>138.60000610352</ele>
        <time>2015-08-30T07:55:08Z</time>
      </trkpt>
      <trkpt lat="49.38373" lon="2.34338">
        <ele>138.60000610352</ele>
        <time>2015-08-30T07:55:16Z</time>
      </trkpt>
      <trkpt lat="49.38375" lon="2.34339">
        <ele>138.60000610352</ele>
        <time>2015-08-30T07:55:17Z</time>
      </trkpt>
      <trkpt lat="49.38392" lon="2.34352">
        <ele>139.80000305176</ele>
        <time>2015-08-30T07:55:26Z</time>
      </trkpt>
      <trkpt lat="49.38395" lon="2.34357">
        <ele>140</ele>
        <time>2015-08-30T07:55:28Z</time>
      </trkpt>
      <trkpt lat="49.38405" lon="2.34382">
        <ele>139.39999389648</ele>
        <time>2015-08-30T07:55:36Z</time>
      </trkpt>
      <trkpt lat="49.38407" lon="2.34387">
        <ele>139.19999694824</ele>
        <time>2015-08-30T07:55:40Z</time>
      </trkpt>
      <trkpt lat="49.38408" lon="2.3439">
        <ele>139</ele>
        <time>2015-08-30T07:55:43Z</time>
      </trkpt>
      <trkpt lat="49.38409" lon="2.34396">
        <ele>138.60000610352</ele>
        <time>2015-08-30T07:55:49Z</time>
      </trkpt>
      <trkpt lat="49.3841" lon="2.34411">
        <ele>137.39999389648</ele>
        <time>2015-08-30T07:55:56Z</time>
      </trkpt>
      <trkpt lat="49.38407" lon="2.34441">
        <ele>134.60000610352</ele>
        <time>2015-08-30T07:56:05Z</time>
      </trkpt>
      <trkpt lat="49.38395" lon="2.34465">
        <ele>131.60000610352</ele>
        <time>2015-08-30T07:56:14Z</time>
      </trkpt>
      <trkpt lat="49.38394" lon="2.34492">
        <ele>130.19999694824</ele>
        <time>2015-08-30T07:56:22Z</time>
      </trkpt>
      <trkpt lat="49.384" lon="2.34515">
        <ele>128.60000610352</ele>
        <time>2015-08-30T07:56:31Z</time>
      </trkpt>
      <trkpt lat="49.38414" lon="2.34529">
        <ele>128.80000305176</ele>
        <time>2015-08-30T07:56:39Z</time>
      </trkpt>
      <trkpt lat="49.38413" lon="2.34558">
        <ele>125.59999847412</ele>
        <time>2015-08-30T07:56:47Z</time>
      </trkpt>
      <trkpt lat="49.38414" lon="2.34588">
        <ele>123.19999694824</ele>
        <time>2015-08-30T07:56:55Z</time>
      </trkpt>
      <trkpt lat="49.38415" lon="2.34618">
        <ele>121.19999694824</ele>
        <time>2015-08-30T07:57:04Z</time>
      </trkpt>
      <trkpt lat="49.38419" lon="2.34636">
        <ele>120.19999694824</ele>
        <time>2015-08-30T07:57:11Z</time>
      </trkpt>
      <trkpt lat="49.38416" lon="2.34667">
        <ele>117.59999847412</ele>
        <time>2015-08-30T07:57:20Z</time>
      </trkpt>
      <trkpt lat="49.3841" lon="2.34694">
        <ele>115.19999694824</ele>
        <time>2015-08-30T07:57:28Z</time>
      </trkpt>
      <trkpt lat="49.38414" lon="2.34725">
        <ele>113.40000152588</ele>
        <time>2015-08-30T07:57:37Z</time>
      </trkpt>
      <trkpt lat="49.38412" lon="2.34756">
        <ele>110.80000305176</ele>
        <time>2015-08-30T07:57:46Z</time>
      </trkpt>
      <trkpt lat="49.38416" lon="2.34783">
        <ele>109.40000152588</ele>
        <time>2015-08-30T07:57:54Z</time>
      </trkpt>
      <trkpt lat="49.38424" lon="2.34811">
        <ele>108.19999694824</ele>
        <time>2015-08-30T07:58:03Z</time>
      </trkpt>
      <trkpt lat="49.38433" lon="2.34839">
        <ele>107</ele>
        <time>2015-08-30T07:58:12Z</time>
      </trkpt>
      <trkpt lat="49.38443" lon="2.34865">
        <ele>105.80000305176</ele>
        <time>2015-08-30T07:58:21Z</time>
      </trkpt>
      <trkpt lat="49.38455" lon="2.3489">
        <ele>104.40000152588</ele>
        <time>2015-08-30T07:58:29Z</time>
      </trkpt>
      <trkpt lat="49.38459" lon="2.34895">
        <ele>104.19999694824</ele>
        <time>2015-08-30T07:58:32Z</time>
      </trkpt>
      <trkpt lat="49.38469" lon="2.349">
        <ele>104.19999694824</ele>
        <time>2015-08-30T07:58:37Z</time>
      </trkpt>
      <trkpt lat="49.3847" lon="2.34902">
        <ele>104</ele>
        <time>2015-08-30T07:58:38Z</time>
      </trkpt>
      <trkpt lat="49.38482" lon="2.34922">
        <ele>103.19999694824</ele>
        <time>2015-08-30T07:58:46Z</time>
      </trkpt>
      <trkpt lat="49.38494" lon="2.34922">
        <ele>103.80000305176</ele>
        <time>2015-08-30T07:58:51Z</time>
      </trkpt>
      <trkpt lat="49.38513" lon="2.34912">
        <ele>105.19999694824</ele>
        <time>2015-08-30T07:59:00Z</time>
      </trkpt>
      <trkpt lat="49.38515" lon="2.34912">
        <ele>105.40000152588</ele>
        <time>2015-08-30T07:59:01Z</time>
      </trkpt>
      <trkpt lat="49.38525" lon="2.34911">
        <ele>106</ele>
        <time>2015-08-30T07:59:06Z</time>
      </trkpt>
      <trkpt lat="49.38543" lon="2.34908">
        <ele>106.80000305176</ele>
        <time>2015-08-30T07:59:14Z</time>
      </trkpt>
      <trkpt lat="49.38561" lon="2.34904">
        <ele>107.80000305176</ele>
        <time>2015-08-30T07:59:22Z</time>
      </trkpt>
      <trkpt lat="49.38579" lon="2.34897">
        <ele>109</ele>
        <time>2015-08-30T07:59:32Z</time>
      </trkpt>
      <trkpt lat="49.38597" lon="2.34891">
        <ele>110.19999694824</ele>
        <time>2015-08-30T07:59:45Z</time>
      </trkpt>
      <trkpt lat="49.38616" lon="2.34882">
        <ele>111.80000305176</ele>
        <time>2015-08-30T07:59:55Z</time>
      </trkpt>
      <trkpt lat="49.38635" lon="2.34882">
        <ele>112.80000305176</ele>
        <time>2015-08-30T08:00:04Z</time>
      </trkpt>
      <trkpt lat="49.38653" lon="2.34872">
        <ele>114.80000305176</ele>
        <time>2015-08-30T08:00:15Z</time>
      </trkpt>
      <trkpt lat="49.38673" lon="2.34868">
        <ele>116.19999694824</ele>
        <time>2015-08-30T08:00:25Z</time>
      </trkpt>
      <trkpt lat="49.38691" lon="2.34862">
        <ele>117.40000152588</ele>
        <time>2015-08-30T08:00:35Z</time>
      </trkpt>
      <trkpt lat="49.38711" lon="2.34856">
        <ele>119</ele>
        <time>2015-08-30T08:00:45Z</time>
      </trkpt>
      <trkpt lat="49.38729" lon="2.3485">
        <ele>120.80000305176</ele>
        <time>2015-08-30T08:00:53Z</time>
      </trkpt>
      <trkpt lat="49.38747" lon="2.34843">
        <ele>123.19999694824</ele>
        <time>2015-08-30T08:01:04Z</time>
      </trkpt>
      <trkpt lat="49.3876" lon="2.34838">
        <ele>125.19999694824</ele>
        <time>2015-08-30T08:01:12Z</time>
      </trkpt>
      <trkpt lat="49.38767" lon="2.34832">
        <ele>126.40000152588</ele>
        <time>2015-08-30T08:01:17Z</time>
      </trkpt>
      <trkpt lat="49.38766" lon="2.34824">
        <ele>127.19999694824</ele>
        <time>2015-08-30T08:01:22Z</time>
      </trkpt>
      <trkpt lat="49.38764" lon="2.34814">
        <ele>128</ele>
        <time>2015-08-30T08:01:31Z</time>
      </trkpt>
      <trkpt lat="49.38764" lon="2.3481">
        <ele>128.19999694824</ele>
        <time>2015-08-30T08:01:34Z</time>
      </trkpt>
      <trkpt lat="49.38761" lon="2.34797">
        <ele>128.80000305176</ele>
        <time>2015-08-30T08:01:44Z</time>
      </trkpt>
      <trkpt lat="49.3876" lon="2.34794">
        <ele>129</ele>
        <time>2015-08-30T08:01:46Z</time>
      </trkpt>
      <trkpt lat="49.38754" lon="2.34766">
        <ele>130.19999694824</ele>
        <time>2015-08-30T08:01:57Z</time>
      </trkpt>
      <trkpt lat="49.38743" lon="2.34744">
        <ele>131</ele>
        <time>2015-08-30T08:02:08Z</time>
      </trkpt>
      <trkpt lat="49.38736" lon="2.34718">
        <ele>133.39999389648</ele>
        <time>2015-08-30T08:02:20Z</time>
      </trkpt>
      <trkpt lat="49.38728" lon="2.34691">
        <ele>135.60000610352</ele>
        <time>2015-08-30T08:02:31Z</time>
      </trkpt>
      <trkpt lat="49.38721" lon="2.34675">
        <ele>136.39999389648</ele>
        <time>2015-08-30T08:02:37Z</time>
      </trkpt>
      <trkpt lat="49.38716" lon="2.34656">
        <ele>137.39999389648</ele>
        <time>2015-08-30T08:02:47Z</time>
      </trkpt>
      <trkpt lat="49.38713" lon="2.34647">
        <ele>138</ele>
        <time>2015-08-30T08:02:51Z</time>
      </trkpt>
      <trkpt lat="49.38712" lon="2.34642">
        <ele>138.39999389648</ele>
        <time>2015-08-30T08:02:53Z</time>
      </trkpt>
      <trkpt lat="49.38706" lon="2.34622">
        <ele>140</ele>
        <time>2015-08-30T08:03:01Z</time>
      </trkpt>
      <trkpt lat="49.38696" lon="2.34598">
        <ele>141.60000610352</ele>
        <time>2015-08-30T08:03:10Z</time>
      </trkpt>
      <trkpt lat="49.38692" lon="2.34572">
        <ele>143.39999389648</ele>
        <time>2015-08-30T08:03:20Z</time>
      </trkpt>
      <trkpt lat="49.38689" lon="2.34565">
        <ele>143.80000305176</ele>
        <time>2015-08-30T08:03:23Z</time>
      </trkpt>
      <trkpt lat="49.38679" lon="2.34539">
        <ele>145</ele>
        <time>2015-08-30T08:03:33Z</time>
      </trkpt>
      <trkpt lat="49.38668" lon="2.34516">
        <ele>146</ele>
        <time>2015-08-30T08:03:42Z</time>
      </trkpt>
      <trkpt lat="49.38662" lon="2.345">
        <ele>146.80000305176</ele>
        <time>2015-08-30T08:03:51Z</time>
      </trkpt>
      <trkpt lat="49.38659" lon="2.34494">
        <ele>147</ele>
        <time>2015-08-30T08:03:56Z</time>
      </trkpt>
      <trkpt lat="49.38656" lon="2.34489">
        <ele>147</ele>
        <time>2015-08-30T08:04:00Z</time>
      </trkpt>
      <trkpt lat="49.38653" lon="2.34483">
        <ele>146.80000305176</ele>
        <time>2015-08-30T08:04:12Z</time>
      </trkpt>
      <trkpt lat="49.38643" lon="2.34467">
        <ele>146.60000610352</ele>
        <time>2015-08-30T08:04:47Z</time>
      </trkpt>
      <trkpt lat="49.38642" lon="2.34466">
        <ele>146.60000610352</ele>
        <time>2015-08-30T08:04:48Z</time>
      </trkpt>
      <trkpt lat="49.38629" lon="2.34442">
        <ele>146.39999389648</ele>
        <time>2015-08-30T08:04:58Z</time>
      </trkpt>
      <trkpt lat="49.38627" lon="2.3444">
        <ele>146.39999389648</ele>
        <time>2015-08-30T08:04:59Z</time>
      </trkpt>
      <trkpt lat="49.38613" lon="2.34422">
        <ele>146.19999694824</ele>
        <time>2015-08-30T08:05:07Z</time>
      </trkpt>
      <trkpt lat="49.38601" lon="2.344">
        <ele>147</ele>
        <time>2015-08-30T08:05:15Z</time>
      </trkpt>
      <trkpt lat="49.38589" lon="2.34378">
        <ele>148</ele>
        <time>2015-08-30T08:05:23Z</time>
      </trkpt>
      <trkpt lat="49.38573" lon="2.34361">
        <ele>149.19999694824</ele>
        <time>2015-08-30T08:05:31Z</time>
      </trkpt>
      <trkpt lat="49.38557" lon="2.34345">
        <ele>150.19999694824</ele>
        <time>2015-08-30T08:05:39Z</time>
      </trkpt>
      <trkpt lat="49.38542" lon="2.34325">
        <ele>151.39999389648</ele>
        <time>2015-08-30T08:05:47Z</time>
      </trkpt>
      <trkpt lat="49.38529" lon="2.34302">
        <ele>152.60000610352</ele>
        <time>2015-08-30T08:05:55Z</time>
      </trkpt>
      <trkpt lat="49.38518" lon="2.34282">
        <ele>152.80000305176</ele>
        <time>2015-08-30T08:06:03Z</time>
      </trkpt>
      <trkpt lat="49.38512" lon="2.34269">
        <ele>153</ele>
        <time>2015-08-30T08:06:07Z</time>
      </trkpt>
      <trkpt lat="49.385" lon="2.34248">
        <ele>153.19999694824</ele>
        <time>2015-08-30T08:06:15Z</time>
      </trkpt>
      <trkpt lat="49.38486" lon="2.34229">
        <ele>153.60000610352</ele>
        <time>2015-08-30T08:06:23Z</time>
      </trkpt>
      <trkpt lat="49.38474" lon="2.34208">
        <ele>154</ele>
        <time>2015-08-30T08:06:31Z</time>
      </trkpt>
      <trkpt lat="49.38467" lon="2.34181">
        <ele>154.80000305176</ele>
        <time>2015-08-30T08:06:40Z</time>
      </trkpt>
      <trkpt lat="49.38467" lon="2.34177">
        <ele>155</ele>
        <time>2015-08-30T08:06:41Z</time>
      </trkpt>
      <trkpt lat="49.38467" lon="2.34158">
        <ele>155.80000305176</ele>
        <time>2015-08-30T08:06:47Z</time>
      </trkpt>
      <trkpt lat="49.38477" lon="2.3415">
        <ele>156.39999389648</ele>
        <time>2015-08-30T08:06:52Z</time>
      </trkpt>
      <trkpt lat="49.38495" lon="2.34146">
        <ele>157.19999694824</ele>
        <time>2015-08-30T08:07:00Z</time>
      </trkpt>
      <trkpt lat="49.38513" lon="2.34141">
        <ele>157.80000305176</ele>
        <time>2015-08-30T08:07:08Z</time>
      </trkpt>
      <trkpt lat="49.38533" lon="2.34134">
        <ele>158.19999694824</ele>
        <time>2015-08-30T08:07:17Z</time>
      </trkpt>
      <trkpt lat="49.38552" lon="2.34131">
        <ele>157.39999389648</ele>
        <time>2015-08-30T08:07:25Z</time>
      </trkpt>
      <trkpt lat="49.38572" lon="2.34125">
        <ele>156.60000610352</ele>
        <time>2015-08-30T08:07:32Z</time>
      </trkpt>
      <trkpt lat="49.3859" lon="2.34118">
        <ele>156</ele>
        <time>2015-08-30T08:07:39Z</time>
      </trkpt>
      <trkpt lat="49.3861" lon="2.34116">
        <ele>155.39999389648</ele>
        <time>2015-08-30T08:07:46Z</time>
      </trkpt>
      <trkpt lat="49.38629" lon="2.34114">
        <ele>153.80000305176</ele>
        <time>2015-08-30T08:07:53Z</time>
      </trkpt>
      <trkpt lat="49.38649" lon="2.34111">
        <ele>151.80000305176</ele>
        <time>2015-08-30T08:08:00Z</time>
      </trkpt>
      <trkpt lat="49.38667" lon="2.34108">
        <ele>148.39999389648</ele>
        <time>2015-08-30T08:08:07Z</time>
      </trkpt>
      <trkpt lat="49.38686" lon="2.34114">
        <ele>145.60000610352</ele>
        <time>2015-08-30T08:08:14Z</time>
      </trkpt>
      <trkpt lat="49.38704" lon="2.34123">
        <ele>142.80000305176</ele>
        <time>2015-08-30T08:08:21Z</time>
      </trkpt>
      <trkpt lat="49.38721" lon="2.34132">
        <ele>139.39999389648</ele>
        <time>2015-08-30T08:08:28Z</time>
      </trkpt>
      <trkpt lat="49.38735" lon="2.34143">
        <ele>137</ele>
        <time>2015-08-30T08:08:35Z</time>
      </trkpt>
      <trkpt lat="49.38751" lon="2.3413">
        <ele>133</ele>
        <time>2015-08-30T08:08:43Z</time>
      </trkpt>
      <trkpt lat="49.38752" lon="2.34128">
        <ele>132.80000305176</ele>
        <time>2015-08-30T08:08:44Z</time>
      </trkpt>
      <trkpt lat="49.38768" lon="2.34112">
        <ele>129.19999694824</ele>
        <time>2015-08-30T08:08:52Z</time>
      </trkpt>
      <trkpt lat="49.38785" lon="2.34095">
        <ele>126</ele>
        <time>2015-08-30T08:09:00Z</time>
      </trkpt>
      <trkpt lat="49.38802" lon="2.34088">
        <ele>123.80000305176</ele>
        <time>2015-08-30T08:09:07Z</time>
      </trkpt>
      <trkpt lat="49.38822" lon="2.34083">
        <ele>121.19999694824</ele>
        <time>2015-08-30T08:09:14Z</time>
      </trkpt>
      <trkpt lat="49.38835" lon="2.34073">
        <ele>119.40000152588</ele>
        <time>2015-08-30T08:09:21Z</time>
      </trkpt>
      <trkpt lat="49.3883" lon="2.3406">
        <ele>119.40000152588</ele>
        <time>2015-08-30T08:09:25Z</time>
      </trkpt>
      <trkpt lat="49.3882" lon="2.34034">
        <ele>119.59999847412</ele>
        <time>2015-08-30T08:09:34Z</time>
      </trkpt>
      <trkpt lat="49.38805" lon="2.34016">
        <ele>121</ele>
        <time>2015-08-30T08:09:42Z</time>
      </trkpt>
      <trkpt lat="49.38792" lon="2.33995">
        <ele>121.80000305176</ele>
        <time>2015-08-30T08:09:49Z</time>
      </trkpt>
      <trkpt lat="49.38784" lon="2.33969">
        <ele>121.59999847412</ele>
        <time>2015-08-30T08:09:56Z</time>
      </trkpt>
      <trkpt lat="49.38784" lon="2.33941">
        <ele>120.80000305176</ele>
        <time>2015-08-30T08:10:03Z</time>
      </trkpt>
      <trkpt lat="49.3878" lon="2.3391">
        <ele>120.19999694824</ele>
        <time>2015-08-30T08:10:10Z</time>
      </trkpt>
      <trkpt lat="49.38774" lon="2.3388">
        <ele>121</ele>
        <time>2015-08-30T08:10:17Z</time>
      </trkpt>
      <trkpt lat="49.38772" lon="2.33853">
        <ele>121.19999694824</ele>
        <time>2015-08-30T08:10:24Z</time>
      </trkpt>
      <trkpt lat="49.38773" lon="2.33821">
        <ele>120.19999694824</ele>
        <time>2015-08-30T08:10:32Z</time>
      </trkpt>
      <trkpt lat="49.38778" lon="2.33795">
        <ele>117.80000305176</ele>
        <time>2015-08-30T08:10:39Z</time>
      </trkpt>
      <trkpt lat="49.38783" lon="2.33768">
        <ele>115.80000305176</ele>
        <time>2015-08-30T08:10:47Z</time>
      </trkpt>
      <trkpt lat="49.38782" lon="2.33761">
        <ele>115.59999847412</ele>
        <time>2015-08-30T08:10:49Z</time>
      </trkpt>
      <trkpt lat="49.38774" lon="2.33744">
        <ele>116.59999847412</ele>
        <time>2015-08-30T08:10:55Z</time>
      </trkpt>
      <trkpt lat="49.38758" lon="2.33726">
        <ele>120.19999694824</ele>
        <time>2015-08-30T08:11:03Z</time>
      </trkpt>
      <trkpt lat="49.38751" lon="2.33715">
        <ele>122</ele>
        <time>2015-08-30T08:11:09Z</time>
      </trkpt>
      <trkpt lat="49.38752" lon="2.3369">
        <ele>121.59999847412</ele>
        <time>2015-08-30T08:11:17Z</time>
      </trkpt>
      <trkpt lat="49.38759" lon="2.33664">
        <ele>120.19999694824</ele>
        <time>2015-08-30T08:11:24Z</time>
      </trkpt>
      <trkpt lat="49.38768" lon="2.3364">
        <ele>119.59999847412</ele>
        <time>2015-08-30T08:11:31Z</time>
      </trkpt>
      <trkpt lat="49.38778" lon="2.33615">
        <ele>120.80000305176</ele>
        <time>2015-08-30T08:11:38Z</time>
      </trkpt>
      <trkpt lat="49.38784" lon="2.33587">
        <ele>123.19999694824</ele>
        <time>2015-08-30T08:11:49Z</time>
      </trkpt>
      <trkpt lat="49.38783" lon="2.33585">
        <ele>123.40000152588</ele>
        <time>2015-08-30T08:11:54Z</time>
      </trkpt>
      <trkpt lat="49.38792" lon="2.33588">
        <ele>122.59999847412</ele>
        <time>2015-08-30T08:13:17Z</time>
      </trkpt>
      <trkpt lat="49.38794" lon="2.33589">
        <ele>122.40000152588</ele>
        <time>2015-08-30T08:13:18Z</time>
      </trkpt>
      <trkpt lat="49.38812" lon="2.33593">
        <ele>121</ele>
        <time>2015-08-30T08:13:29Z</time>
      </trkpt>
      <trkpt lat="49.38832" lon="2.33592">
        <ele>119.80000305176</ele>
        <time>2015-08-30T08:13:37Z</time>
      </trkpt>
      <trkpt lat="49.38851" lon="2.33591">
        <ele>118.80000305176</ele>
        <time>2015-08-30T08:13:44Z</time>
      </trkpt>
      <trkpt lat="49.38854" lon="2.3359">
        <ele>118.80000305176</ele>
        <time>2015-08-30T08:13:45Z</time>
      </trkpt>
      <trkpt lat="49.38868" lon="2.33575">
        <ele>119</ele>
        <time>2015-08-30T08:13:55Z</time>
      </trkpt>
      <trkpt lat="49.38868" lon="2.33572">
        <ele>119.40000152588</ele>
        <time>2015-08-30T08:13:57Z</time>
      </trkpt>
      <trkpt lat="49.38862" lon="2.33565">
        <ele>120.80000305176</ele>
        <time>2015-08-30T08:14:03Z</time>
      </trkpt>
      <trkpt lat="49.38859" lon="2.33561">
        <ele>121.40000152588</ele>
        <time>2015-08-30T08:14:09Z</time>
      </trkpt>
      <trkpt lat="49.38854" lon="2.3355">
        <ele>122.59999847412</ele>
        <time>2015-08-30T08:14:22Z</time>
      </trkpt>
      <trkpt lat="49.38848" lon="2.33532">
        <ele>125</ele>
        <time>2015-08-30T08:14:56Z</time>
      </trkpt>
      <trkpt lat="49.38835" lon="2.33513">
        <ele>127.59999847412</ele>
        <time>2015-08-30T08:15:09Z</time>
      </trkpt>
      <trkpt lat="49.38829" lon="2.33503">
        <ele>129</ele>
        <time>2015-08-30T08:15:14Z</time>
      </trkpt>
      <trkpt lat="49.38824" lon="2.33501">
        <ele>129.60000610352</ele>
        <time>2015-08-30T08:15:18Z</time>
      </trkpt>
      <trkpt lat="49.38809" lon="2.33486">
        <ele>130.60000610352</ele>
        <time>2015-08-30T08:15:26Z</time>
      </trkpt>
      <trkpt lat="49.38796" lon="2.33465">
        <ele>130.80000305176</ele>
        <time>2015-08-30T08:15:35Z</time>
      </trkpt>
      <trkpt lat="49.38782" lon="2.33448">
        <ele>131.19999694824</ele>
        <time>2015-08-30T08:15:43Z</time>
      </trkpt>
      <trkpt lat="49.38769" lon="2.33428">
        <ele>130.80000305176</ele>
        <time>2015-08-30T08:15:52Z</time>
      </trkpt>
      <trkpt lat="49.38754" lon="2.3341">
        <ele>130.39999389648</ele>
        <time>2015-08-30T08:16:01Z</time>
      </trkpt>
      <trkpt lat="49.38753" lon="2.33408">
        <ele>130.39999389648</ele>
        <time>2015-08-30T08:16:02Z</time>
      </trkpt>
      <trkpt lat="49.38762" lon="2.33385">
        <ele>128.60000610352</ele>
        <time>2015-08-30T08:16:12Z</time>
      </trkpt>
      <trkpt lat="49.38762" lon="2.33383">
        <ele>128.39999389648</ele>
        <time>2015-08-30T08:16:13Z</time>
      </trkpt>
      <trkpt lat="49.38764" lon="2.33355">
        <ele>126.40000152588</ele>
        <time>2015-08-30T08:16:21Z</time>
      </trkpt>
      <trkpt lat="49.38763" lon="2.33353">
        <ele>126.40000152588</ele>
        <time>2015-08-30T08:16:22Z</time>
      </trkpt>
      <trkpt lat="49.3876" lon="2.33352">
        <ele>126.40000152588</ele>
        <time>2015-08-30T08:16:26Z</time>
      </trkpt>
      <trkpt lat="49.38754" lon="2.33345">
        <ele>126</ele>
        <time>2015-08-30T08:16:31Z</time>
      </trkpt>
      <trkpt lat="49.38751" lon="2.3334">
        <ele>125.80000305176</ele>
        <time>2015-08-30T08:16:35Z</time>
      </trkpt>
      <trkpt lat="49.38748" lon="2.33338">
        <ele>125.80000305176</ele>
        <time>2015-08-30T08:16:37Z</time>
      </trkpt>
      <trkpt lat="49.38735" lon="2.33327">
        <ele>125.80000305176</ele>
        <time>2015-08-30T08:16:46Z</time>
      </trkpt>
      <trkpt lat="49.3872" lon="2.33308">
        <ele>126.40000152588</ele>
        <time>2015-08-30T08:16:57Z</time>
      </trkpt>
      <trkpt lat="49.38718" lon="2.33305">
        <ele>126.59999847412</ele>
        <time>2015-08-30T08:16:59Z</time>
      </trkpt>
      <trkpt lat="49.38714" lon="2.33297">
        <ele>126.80000305176</ele>
        <time>2015-08-30T08:17:03Z</time>
      </trkpt>
      <trkpt lat="49.38705" lon="2.33288">
        <ele>127.19999694824</ele>
        <time>2015-08-30T08:17:10Z</time>
      </trkpt>
      <trkpt lat="49.38703" lon="2.33285">
        <ele>127.40000152588</ele>
        <time>2015-08-30T08:17:12Z</time>
      </trkpt>
      <trkpt lat="49.38698" lon="2.33277">
        <ele>127.59999847412</ele>
        <time>2015-08-30T08:17:16Z</time>
      </trkpt>
      <trkpt lat="49.38685" lon="2.33257">
        <ele>130.39999389648</ele>
        <time>2015-08-30T08:17:26Z</time>
      </trkpt>
      <trkpt lat="49.38678" lon="2.33246">
        <ele>132.19999694824</ele>
        <time>2015-08-30T08:17:32Z</time>
      </trkpt>
      <trkpt lat="49.38668" lon="2.33224">
        <ele>133.39999389648</ele>
        <time>2015-08-30T08:17:47Z</time>
      </trkpt>
      <trkpt lat="49.38666" lon="2.33221">
        <ele>133.60000610352</ele>
        <time>2015-08-30T08:17:49Z</time>
      </trkpt>
      <trkpt lat="49.38664" lon="2.33221">
        <ele>134</ele>
        <time>2015-08-30T08:17:50Z</time>
      </trkpt>
      <trkpt lat="49.38661" lon="2.33215">
        <ele>134.39999389648</ele>
        <time>2015-08-30T08:17:54Z</time>
      </trkpt>
      <trkpt lat="49.38657" lon="2.33208">
        <ele>135</ele>
        <time>2015-08-30T08:17:59Z</time>
      </trkpt>
      <trkpt lat="49.38649" lon="2.33184">
        <ele>138</ele>
        <time>2015-08-30T08:18:17Z</time>
      </trkpt>
      <trkpt lat="49.38647" lon="2.33181">
        <ele>138.60000610352</ele>
        <time>2015-08-30T08:18:19Z</time>
      </trkpt>
      <trkpt lat="49.38643" lon="2.33177">
        <ele>139.19999694824</ele>
        <time>2015-08-30T08:18:23Z</time>
      </trkpt>
      <trkpt lat="49.3863" lon="2.33169">
        <ele>140.80000305176</ele>
        <time>2015-08-30T08:18:33Z</time>
      </trkpt>
      <trkpt lat="49.3862" lon="2.33152">
        <ele>142.60000610352</ele>
        <time>2015-08-30T08:18:49Z</time>
      </trkpt>
      <trkpt lat="49.38617" lon="2.33148">
        <ele>143</ele>
        <time>2015-08-30T08:18:52Z</time>
      </trkpt>
      <trkpt lat="49.3861" lon="2.33144">
        <ele>143.60000610352</ele>
        <time>2015-08-30T08:18:59Z</time>
      </trkpt>
      <trkpt lat="49.38607" lon="2.3314">
        <ele>144.19999694824</ele>
        <time>2015-08-30T08:19:05Z</time>
      </trkpt>
      <trkpt lat="49.38601" lon="2.33134">
        <ele>145</ele>
        <time>2015-08-30T08:19:10Z</time>
      </trkpt>
      <trkpt lat="49.38596" lon="2.33127">
        <ele>145.80000305176</ele>
        <time>2015-08-30T08:19:16Z</time>
      </trkpt>
      <trkpt lat="49.38592" lon="2.33124">
        <ele>146.19999694824</ele>
        <time>2015-08-30T08:19:20Z</time>
      </trkpt>
      <trkpt lat="49.38591" lon="2.33122">
        <ele>146.39999389648</ele>
        <time>2015-08-30T08:19:22Z</time>
      </trkpt>
      <trkpt lat="49.38588" lon="2.33116">
        <ele>147</ele>
        <time>2015-08-30T08:19:27Z</time>
      </trkpt>
      <trkpt lat="49.38587" lon="2.33113">
        <ele>147.39999389648</ele>
        <time>2015-08-30T08:19:29Z</time>
      </trkpt>
      <trkpt lat="49.38582" lon="2.33107">
        <ele>148</ele>
        <time>2015-08-30T08:19:35Z</time>
      </trkpt>
      <trkpt lat="49.38577" lon="2.33103">
        <ele>148.60000610352</ele>
        <time>2015-08-30T08:19:40Z</time>
      </trkpt>
      <trkpt lat="49.38564" lon="2.33093">
        <ele>150.19999694824</ele>
        <time>2015-08-30T08:19:52Z</time>
      </trkpt>
      <trkpt lat="49.38554" lon="2.3309">
        <ele>151</ele>
        <time>2015-08-30T08:20:05Z</time>
      </trkpt>
      <trkpt lat="49.38548" lon="2.33091">
        <ele>151.19999694824</ele>
        <time>2015-08-30T08:20:11Z</time>
      </trkpt>
      <trkpt lat="49.38533" lon="2.33102">
        <ele>153.19999694824</ele>
        <time>2015-08-30T08:20:24Z</time>
      </trkpt>
      <trkpt lat="49.38522" lon="2.33109">
        <ele>154.19999694824</ele>
        <time>2015-08-30T08:20:37Z</time>
      </trkpt>
      <trkpt lat="49.38519" lon="2.33109">
        <ele>154.39999389648</ele>
        <time>2015-08-30T08:20:43Z</time>
      </trkpt>
      <trkpt lat="49.38509" lon="2.33114">
        <ele>155</ele>
        <time>2015-08-30T08:20:52Z</time>
      </trkpt>
      <trkpt lat="49.38503" lon="2.33117">
        <ele>155.19999694824</ele>
        <time>2015-08-30T08:20:57Z</time>
      </trkpt>
      <trkpt lat="49.38498" lon="2.33116">
        <ele>155.39999389648</ele>
        <time>2015-08-30T08:21:07Z</time>
      </trkpt>
      <trkpt lat="49.3849" lon="2.33114">
        <ele>155.80000305176</ele>
        <time>2015-08-30T08:24:46Z</time>
      </trkpt>
      <trkpt lat="49.38489" lon="2.33114">
        <ele>155.80000305176</ele>
        <time>2015-08-30T08:24:47Z</time>
      </trkpt>
      <trkpt lat="49.38477" lon="2.33125">
        <ele>156.39999389648</ele>
        <time>2015-08-30T08:24:53Z</time>
      </trkpt>
      <trkpt lat="49.38473" lon="2.33129">
        <ele>156.60000610352</ele>
        <time>2015-08-30T08:24:55Z</time>
      </trkpt>
      <trkpt lat="49.38453" lon="2.33139">
        <ele>157.60000610352</ele>
        <time>2015-08-30T08:25:06Z</time>
      </trkpt>
      <trkpt lat="49.38438" lon="2.33154">
        <ele>158</ele>
        <time>2015-08-30T08:25:15Z</time>
      </trkpt>
      <trkpt lat="49.3842" lon="2.33168">
        <ele>158.19999694824</ele>
        <time>2015-08-30T08:25:23Z</time>
      </trkpt>
      <trkpt lat="49.38405" lon="2.33185">
        <ele>158.39999389648</ele>
        <time>2015-08-30T08:25:32Z</time>
      </trkpt>
      <trkpt lat="49.38389" lon="2.33198">
        <ele>158.39999389648</ele>
        <time>2015-08-30T08:25:41Z</time>
      </trkpt>
      <trkpt lat="49.38371" lon="2.33208">
        <ele>157.60000610352</ele>
        <time>2015-08-30T08:25:48Z</time>
      </trkpt>
      <trkpt lat="49.38353" lon="2.33216">
        <ele>157.39999389648</ele>
        <time>2015-08-30T08:25:54Z</time>
      </trkpt>
      <trkpt lat="49.38336" lon="2.33225">
        <ele>157.19999694824</ele>
        <time>2015-08-30T08:26:00Z</time>
      </trkpt>
      <trkpt lat="49.38317" lon="2.33235">
        <ele>156.80000305176</ele>
        <time>2015-08-30T08:26:08Z</time>
      </trkpt>
      <trkpt lat="49.383" lon="2.33243">
        <ele>156.39999389648</ele>
        <time>2015-08-30T08:26:16Z</time>
      </trkpt>
      <trkpt lat="49.38283" lon="2.33255">
        <ele>156</ele>
        <time>2015-08-30T08:26:23Z</time>
      </trkpt>
      <trkpt lat="49.38266" lon="2.33268">
        <ele>155.39999389648</ele>
        <time>2015-08-30T08:26:31Z</time>
      </trkpt>
      <trkpt lat="49.3825" lon="2.33282">
        <ele>154.80000305176</ele>
        <time>2015-08-30T08:26:38Z</time>
      </trkpt>
      <trkpt lat="49.38231" lon="2.33294">
        <ele>154.19999694824</ele>
        <time>2015-08-30T08:26:45Z</time>
      </trkpt>
      <trkpt lat="49.38212" lon="2.33302">
        <ele>153.60000610352</ele>
        <time>2015-08-30T08:26:53Z</time>
      </trkpt>
      <trkpt lat="49.38194" lon="2.33303">
        <ele>153.19999694824</ele>
        <time>2015-08-30T08:27:02Z</time>
      </trkpt>
      <trkpt lat="49.38185" lon="2.33303">
        <ele>153.19999694824</ele>
        <time>2015-08-30T08:27:06Z</time>
      </trkpt>
      <trkpt lat="49.38166" lon="2.33311">
        <ele>152.80000305176</ele>
        <time>2015-08-30T08:27:13Z</time>
      </trkpt>
      <trkpt lat="49.38159" lon="2.33309">
        <ele>152.60000610352</ele>
        <time>2015-08-30T08:27:16Z</time>
      </trkpt>
      <trkpt lat="49.3814" lon="2.33313">
        <ele>152</ele>
        <time>2015-08-30T08:27:24Z</time>
      </trkpt>
      <trkpt lat="49.38138" lon="2.33314">
        <ele>152</ele>
        <time>2015-08-30T08:27:25Z</time>
      </trkpt>
      <trkpt lat="49.38117" lon="2.3332">
        <ele>151.39999389648</ele>
        <time>2015-08-30T08:27:32Z</time>
      </trkpt>
      <trkpt lat="49.38112" lon="2.33321">
        <ele>151.19999694824</ele>
        <time>2015-08-30T08:27:34Z</time>
      </trkpt>
      <trkpt lat="49.38093" lon="2.33327">
        <ele>151.60000610352</ele>
        <time>2015-08-30T08:27:41Z</time>
      </trkpt>
      <trkpt lat="49.38073" lon="2.33339">
        <ele>151.60000610352</ele>
        <time>2015-08-30T08:27:47Z</time>
      </trkpt>
      <trkpt lat="49.38055" lon="2.33343">
        <ele>152</ele>
        <time>2015-08-30T08:27:55Z</time>
      </trkpt>
      <trkpt lat="49.38036" lon="2.33347">
        <ele>152.60000610352</ele>
        <time>2015-08-30T08:28:02Z</time>
      </trkpt>
      <trkpt lat="49.38018" lon="2.33343">
        <ele>153.60000610352</ele>
        <time>2015-08-30T08:28:08Z</time>
      </trkpt>
      <trkpt lat="49.38009" lon="2.33339">
        <ele>154.19999694824</ele>
        <time>2015-08-30T08:28:11Z</time>
      </trkpt>
      <trkpt lat="49.37991" lon="2.33351">
        <ele>155.19999694824</ele>
        <time>2015-08-30T08:28:19Z</time>
      </trkpt>
      <trkpt lat="49.3798" lon="2.33361">
        <ele>155.60000610352</ele>
        <time>2015-08-30T08:28:23Z</time>
      </trkpt>
      <trkpt lat="49.37963" lon="2.33371">
        <ele>157.19999694824</ele>
        <time>2015-08-30T08:28:32Z</time>
      </trkpt>
      <trkpt lat="49.37961" lon="2.33372">
        <ele>157.39999389648</ele>
        <time>2015-08-30T08:28:33Z</time>
      </trkpt>
      <trkpt lat="49.37947" lon="2.33383">
        <ele>158.60000610352</ele>
        <time>2015-08-30T08:28:39Z</time>
      </trkpt>
      <trkpt lat="49.37931" lon="2.33396">
        <ele>159</ele>
        <time>2015-08-30T08:28:45Z</time>
      </trkpt>
      <trkpt lat="49.37913" lon="2.33411">
        <ele>158.60000610352</ele>
        <time>2015-08-30T08:28:52Z</time>
      </trkpt>
      <trkpt lat="49.37897" lon="2.33426">
        <ele>157.80000305176</ele>
        <time>2015-08-30T08:29:00Z</time>
      </trkpt>
      <trkpt lat="49.37882" lon="2.33441">
        <ele>157.19999694824</ele>
        <time>2015-08-30T08:29:06Z</time>
      </trkpt>
      <trkpt lat="49.37863" lon="2.3345">
        <ele>157.60000610352</ele>
        <time>2015-08-30T08:29:14Z</time>
      </trkpt>
      <trkpt lat="49.37845" lon="2.33462">
        <ele>157.19999694824</ele>
        <time>2015-08-30T08:29:23Z</time>
      </trkpt>
      <trkpt lat="49.37826" lon="2.33478">
        <ele>157.19999694824</ele>
        <time>2015-08-30T08:29:30Z</time>
      </trkpt>
      <trkpt lat="49.37814" lon="2.33503">
        <ele>157.60000610352</ele>
        <time>2015-08-30T08:29:37Z</time>
      </trkpt>
      <trkpt lat="49.37801" lon="2.33525">
        <ele>157.60000610352</ele>
        <time>2015-08-30T08:29:44Z</time>
      </trkpt>
      <trkpt lat="49.37797" lon="2.33532">
        <ele>157.80000305176</ele>
        <time>2015-08-30T08:29:47Z</time>
      </trkpt>
      <trkpt lat="49.37795" lon="2.33538">
        <ele>158</ele>
        <time>2015-08-30T08:29:49Z</time>
      </trkpt>
      <trkpt lat="49.37781" lon="2.33557">
        <ele>158.80000305176</ele>
        <time>2015-08-30T08:29:56Z</time>
      </trkpt>
      <trkpt lat="49.37773" lon="2.33566">
        <ele>159</ele>
        <time>2015-08-30T08:30:01Z</time>
      </trkpt>
      <trkpt lat="49.37759" lon="2.33587">
        <ele>159.19999694824</ele>
        <time>2015-08-30T08:30:09Z</time>
      </trkpt>
      <trkpt lat="49.37759" lon="2.3359">
        <ele>159.19999694824</ele>
        <time>2015-08-30T08:30:10Z</time>
      </trkpt>
      <trkpt lat="49.37751" lon="2.33615">
        <ele>159.39999389648</ele>
        <time>2015-08-30T08:30:16Z</time>
      </trkpt>
      <trkpt lat="49.37743" lon="2.33638">
        <ele>159.39999389648</ele>
        <time>2015-08-30T08:30:24Z</time>
      </trkpt>
      <trkpt lat="49.37743" lon="2.3364">
        <ele>159.39999389648</ele>
        <time>2015-08-30T08:30:26Z</time>
      </trkpt>
      <trkpt lat="49.37743" lon="2.33642">
        <ele>159.39999389648</ele>
        <time>2015-08-30T08:30:28Z</time>
      </trkpt>
      <trkpt lat="49.37747" lon="2.33645">
        <ele>159.39999389648</ele>
        <time>2015-08-30T08:30:37Z</time>
      </trkpt>
      <trkpt lat="49.37748" lon="2.33647">
        <ele>159.39999389648</ele>
        <time>2015-08-30T08:30:41Z</time>
      </trkpt>
      <trkpt lat="49.37759" lon="2.33651">
        <ele>159.19999694824</ele>
        <time>2015-08-30T08:30:52Z</time>
      </trkpt>
      <trkpt lat="49.37777" lon="2.33648">
        <ele>159</ele>
        <time>2015-08-30T08:31:07Z</time>
      </trkpt>
      <trkpt lat="49.37781" lon="2.33647">
        <ele>159</ele>
        <time>2015-08-30T08:31:13Z</time>
      </trkpt>
      <trkpt lat="49.37786" lon="2.33646">
        <ele>158.60000610352</ele>
        <time>2015-08-30T08:31:17Z</time>
      </trkpt>
      <trkpt lat="49.37793" lon="2.33645">
        <ele>158.19999694824</ele>
        <time>2015-08-30T08:31:22Z</time>
      </trkpt>
      <trkpt lat="49.37797" lon="2.33644">
        <ele>158</ele>
        <time>2015-08-30T08:31:25Z</time>
      </trkpt>
      <trkpt lat="49.37802" lon="2.33644">
        <ele>157.80000305176</ele>
        <time>2015-08-30T08:31:28Z</time>
      </trkpt>
      <trkpt lat="49.37815" lon="2.33645">
        <ele>157</ele>
        <time>2015-08-30T08:31:37Z</time>
      </trkpt>
      <trkpt lat="49.37818" lon="2.33643">
        <ele>156.80000305176</ele>
        <time>2015-08-30T08:31:43Z</time>
      </trkpt>
      <trkpt lat="49.37834" lon="2.33639">
        <ele>155.80000305176</ele>
        <time>2015-08-30T08:31:56Z</time>
      </trkpt>
      <trkpt lat="49.37841" lon="2.33641">
        <ele>155.39999389648</ele>
        <time>2015-08-30T08:32:00Z</time>
      </trkpt>
      <trkpt lat="49.3785" lon="2.33642">
        <ele>155</ele>
        <time>2015-08-30T08:32:08Z</time>
      </trkpt>
      <trkpt lat="49.37855" lon="2.33645">
        <ele>154.80000305176</ele>
        <time>2015-08-30T08:32:11Z</time>
      </trkpt>
      <trkpt lat="49.37863" lon="2.33648">
        <ele>154.39999389648</ele>
        <time>2015-08-30T08:32:18Z</time>
      </trkpt>
      <trkpt lat="49.37876" lon="2.3365">
        <ele>153.39999389648</ele>
        <time>2015-08-30T08:32:26Z</time>
      </trkpt>
      <trkpt lat="49.37884" lon="2.33658">
        <ele>152.39999389648</ele>
        <time>2015-08-30T08:32:32Z</time>
      </trkpt>
      <trkpt lat="49.37889" lon="2.33666">
        <ele>152</ele>
        <time>2015-08-30T08:32:37Z</time>
      </trkpt>
      <trkpt lat="49.37895" lon="2.33671">
        <ele>151.60000610352</ele>
        <time>2015-08-30T08:32:42Z</time>
      </trkpt>
      <trkpt lat="49.379" lon="2.33672">
        <ele>151.19999694824</ele>
        <time>2015-08-30T08:32:48Z</time>
      </trkpt>
      <trkpt lat="49.37906" lon="2.33675">
        <ele>150.60000610352</ele>
        <time>2015-08-30T08:32:52Z</time>
      </trkpt>
      <trkpt lat="49.37925" lon="2.33684">
        <ele>149.19999694824</ele>
        <time>2015-08-30T08:33:01Z</time>
      </trkpt>
      <trkpt lat="49.37943" lon="2.33689">
        <ele>147.80000305176</ele>
        <time>2015-08-30T08:33:11Z</time>
      </trkpt>
      <trkpt lat="49.37962" lon="2.33691">
        <ele>145.60000610352</ele>
        <time>2015-08-30T08:33:19Z</time>
      </trkpt>
      <trkpt lat="49.37981" lon="2.33684">
        <ele>143.80000305176</ele>
        <time>2015-08-30T08:33:28Z</time>
      </trkpt>
      <trkpt lat="49.38001" lon="2.33678">
        <ele>143</ele>
        <time>2015-08-30T08:33:35Z</time>
      </trkpt>
      <trkpt lat="49.38017" lon="2.33665">
        <ele>142.80000305176</ele>
        <time>2015-08-30T08:33:44Z</time>
      </trkpt>
      <trkpt lat="49.38025" lon="2.33653">
        <ele>143</ele>
        <time>2015-08-30T08:33:52Z</time>
      </trkpt>
      <trkpt lat="49.38033" lon="2.33652">
        <ele>143</ele>
        <time>2015-08-30T08:33:59Z</time>
      </trkpt>
      <trkpt lat="49.38036" lon="2.33653">
        <ele>143.19999694824</ele>
        <time>2015-08-30T08:34:00Z</time>
      </trkpt>
      <trkpt lat="49.38039" lon="2.33651">
        <ele>143.80000305176</ele>
        <time>2015-08-30T08:34:05Z</time>
      </trkpt>
      <trkpt lat="49.38047" lon="2.33651">
        <ele>144.60000610352</ele>
        <time>2015-08-30T08:34:09Z</time>
      </trkpt>
      <trkpt lat="49.3806" lon="2.33654">
        <ele>145.80000305176</ele>
        <time>2015-08-30T08:34:18Z</time>
      </trkpt>
      <trkpt lat="49.38062" lon="2.33652">
        <ele>146.19999694824</ele>
        <time>2015-08-30T08:34:19Z</time>
      </trkpt>
      <trkpt lat="49.38067" lon="2.3365">
        <ele>147</ele>
        <time>2015-08-30T08:34:26Z</time>
      </trkpt>
      <trkpt lat="49.38085" lon="2.3364">
        <ele>149.39999389648</ele>
        <time>2015-08-30T08:34:44Z</time>
      </trkpt>
      <trkpt lat="49.38103" lon="2.33637">
        <ele>150.60000610352</ele>
        <time>2015-08-30T08:34:53Z</time>
      </trkpt>
      <trkpt lat="49.38122" lon="2.33633">
        <ele>151.39999389648</ele>
        <time>2015-08-30T08:35:06Z</time>
      </trkpt>
      <trkpt lat="49.38142" lon="2.33638">
        <ele>152.19999694824</ele>
        <time>2015-08-30T08:35:14Z</time>
      </trkpt>
      <trkpt lat="49.38159" lon="2.33643">
        <ele>153.19999694824</ele>
        <time>2015-08-30T08:35:22Z</time>
      </trkpt>
      <trkpt lat="49.38169" lon="2.33644">
        <ele>153.60000610352</ele>
        <time>2015-08-30T08:35:26Z</time>
      </trkpt>
      <trkpt lat="49.38189" lon="2.33644">
        <ele>154.80000305176</ele>
        <time>2015-08-30T08:35:34Z</time>
      </trkpt>
      <trkpt lat="49.38209" lon="2.33646">
        <ele>155.39999389648</ele>
        <time>2015-08-30T08:35:40Z</time>
      </trkpt>
      <trkpt lat="49.38227" lon="2.33647">
        <ele>155.60000610352</ele>
        <time>2015-08-30T08:35:48Z</time>
      </trkpt>
      <trkpt lat="49.38245" lon="2.33645">
        <ele>155.80000305176</ele>
        <time>2015-08-30T08:35:57Z</time>
      </trkpt>
      <trkpt lat="49.38247" lon="2.33645">
        <ele>155.80000305176</ele>
        <time>2015-08-30T08:35:58Z</time>
      </trkpt>
      <trkpt lat="49.38268" lon="2.33647">
        <ele>156</ele>
        <time>2015-08-30T08:36:07Z</time>
      </trkpt>
      <trkpt lat="49.38287" lon="2.33646">
        <ele>156.19999694824</ele>
        <time>2015-08-30T08:36:14Z</time>
      </trkpt>
      <trkpt lat="49.38305" lon="2.33644">
        <ele>156.80000305176</ele>
        <time>2015-08-30T08:36:21Z</time>
      </trkpt>
      <trkpt lat="49.38322" lon="2.33649">
        <ele>157.39999389648</ele>
        <time>2015-08-30T08:36:28Z</time>
      </trkpt>
      <trkpt lat="49.38342" lon="2.3365">
        <ele>158.19999694824</ele>
        <time>2015-08-30T08:36:38Z</time>
      </trkpt>
      <trkpt lat="49.38362" lon="2.33648">
        <ele>158.80000305176</ele>
        <time>2015-08-30T08:36:45Z</time>
      </trkpt>
      <trkpt lat="49.38382" lon="2.33647">
        <ele>159.19999694824</ele>
        <time>2015-08-30T08:36:52Z</time>
      </trkpt>
      <trkpt lat="49.38401" lon="2.33646">
        <ele>159.60000610352</ele>
        <time>2015-08-30T08:37:02Z</time>
      </trkpt>
      <trkpt lat="49.38419" lon="2.33646">
        <ele>160</ele>
        <time>2015-08-30T08:37:12Z</time>
      </trkpt>
      <trkpt lat="49.38426" lon="2.33647">
        <ele>160.19999694824</ele>
        <time>2015-08-30T08:37:20Z</time>
      </trkpt>
      <trkpt lat="49.38429" lon="2.33648">
        <ele>160.39999389648</ele>
        <time>2015-08-30T08:37:25Z</time>
      </trkpt>
      <trkpt lat="49.38435" lon="2.33648">
        <ele>160.60000610352</ele>
        <time>2015-08-30T08:37:31Z</time>
      </trkpt>
      <trkpt lat="49.38438" lon="2.33649">
        <ele>160.60000610352</ele>
        <time>2015-08-30T08:37:37Z</time>
      </trkpt>
      <trkpt lat="49.38439" lon="2.33656">
        <ele>160.60000610352</ele>
        <time>2015-08-30T08:38:53Z</time>
      </trkpt>
      <trkpt lat="49.38438" lon="2.33658">
        <ele>160.60000610352</ele>
        <time>2015-08-30T08:38:54Z</time>
      </trkpt>
      <trkpt lat="49.38435" lon="2.33671">
        <ele>160.60000610352</ele>
        <time>2015-08-30T08:39:04Z</time>
      </trkpt>
      <trkpt lat="49.38435" lon="2.33675">
        <ele>160.60000610352</ele>
        <time>2015-08-30T08:39:07Z</time>
      </trkpt>
      <trkpt lat="49.38433" lon="2.33687">
        <ele>160.39999389648</ele>
        <time>2015-08-30T08:39:11Z</time>
      </trkpt>
      <trkpt lat="49.38428" lon="2.33717">
        <ele>159.80000305176</ele>
        <time>2015-08-30T08:39:19Z</time>
      </trkpt>
      <trkpt lat="49.38424" lon="2.33746">
        <ele>159.39999389648</ele>
        <time>2015-08-30T08:39:26Z</time>
      </trkpt>
      <trkpt lat="49.38416" lon="2.33772">
        <ele>159</ele>
        <time>2015-08-30T08:39:33Z</time>
      </trkpt>
      <trkpt lat="49.38416" lon="2.33775">
        <ele>158.80000305176</ele>
        <time>2015-08-30T08:39:34Z</time>
      </trkpt>
      <trkpt lat="49.38416" lon="2.33791">
        <ele>158.80000305176</ele>
        <time>2015-08-30T08:39:38Z</time>
      </trkpt>
      <trkpt lat="49.38411" lon="2.33819">
        <ele>158.60000610352</ele>
        <time>2015-08-30T08:39:45Z</time>
      </trkpt>
      <trkpt lat="49.38406" lon="2.33846">
        <ele>158.39999389648</ele>
        <time>2015-08-30T08:39:52Z</time>
      </trkpt>
      <trkpt lat="49.38401" lon="2.33875">
        <ele>157.80000305176</ele>
        <time>2015-08-30T08:40:00Z</time>
      </trkpt>
      <trkpt lat="49.38402" lon="2.3388">
        <ele>157.80000305176</ele>
        <time>2015-08-30T08:40:01Z</time>
      </trkpt>
      <trkpt lat="49.38398" lon="2.33903">
        <ele>157.60000610352</ele>
        <time>2015-08-30T08:40:07Z</time>
      </trkpt>
      <trkpt lat="49.38395" lon="2.33933">
        <ele>157.39999389648</ele>
        <time>2015-08-30T08:40:14Z</time>
      </trkpt>
      <trkpt lat="49.38394" lon="2.33962">
        <ele>156.80000305176</ele>
        <time>2015-08-30T08:40:21Z</time>
      </trkpt>
      <trkpt lat="49.38386" lon="2.33988">
        <ele>156</ele>
        <time>2015-08-30T08:40:27Z</time>
      </trkpt>
      <trkpt lat="49.38382" lon="2.34018">
        <ele>155.19999694824</ele>
        <time>2015-08-30T08:40:34Z</time>
      </trkpt>
      <trkpt lat="49.38379" lon="2.34032">
        <ele>154.39999389648</ele>
        <time>2015-08-30T08:40:38Z</time>
      </trkpt>
      <trkpt lat="49.38371" lon="2.3406">
        <ele>152.39999389648</ele>
        <time>2015-08-30T08:40:45Z</time>
      </trkpt>
      <trkpt lat="49.38363" lon="2.34086">
        <ele>150.80000305176</ele>
        <time>2015-08-30T08:40:51Z</time>
      </trkpt>
      <trkpt lat="49.38358" lon="2.34115">
        <ele>150.39999389648</ele>
        <time>2015-08-30T08:40:57Z</time>
      </trkpt>
      <trkpt lat="49.38355" lon="2.34144">
        <ele>149.80000305176</ele>
        <time>2015-08-30T08:41:04Z</time>
      </trkpt>
      <trkpt lat="49.38349" lon="2.34163">
        <ele>149</ele>
        <time>2015-08-30T08:41:10Z</time>
      </trkpt>
      <trkpt lat="49.38331" lon="2.34166">
        <ele>147.39999389648</ele>
        <time>2015-08-30T08:41:23Z</time>
      </trkpt>
      <trkpt lat="49.38311" lon="2.34164">
        <ele>146.19999694824</ele>
        <time>2015-08-30T08:41:32Z</time>
      </trkpt>
      <trkpt lat="49.383" lon="2.34165">
        <ele>145.19999694824</ele>
        <time>2015-08-30T08:41:38Z</time>
      </trkpt>
      <trkpt lat="49.38284" lon="2.34185">
        <ele>142.80000305176</ele>
        <time>2015-08-30T08:41:44Z</time>
      </trkpt>
      <trkpt lat="49.38276" lon="2.34202">
        <ele>140.19999694824</ele>
        <time>2015-08-30T08:41:48Z</time>
      </trkpt>
      <trkpt lat="49.38271" lon="2.34231">
        <ele>136.80000305176</ele>
        <time>2015-08-30T08:41:55Z</time>
      </trkpt>
      <trkpt lat="49.38264" lon="2.34254">
        <ele>133.39999389648</ele>
        <time>2015-08-30T08:42:02Z</time>
      </trkpt>
      <trkpt lat="49.38251" lon="2.34239">
        <ele>131.80000305176</ele>
        <time>2015-08-30T08:42:11Z</time>
      </trkpt>
      <trkpt lat="49.3825" lon="2.34237">
        <ele>131.60000610352</ele>
        <time>2015-08-30T08:42:12Z</time>
      </trkpt>
      <trkpt lat="49.38248" lon="2.34235">
        <ele>131.39999389648</ele>
        <time>2015-08-30T08:42:13Z</time>
      </trkpt>
      <trkpt lat="49.38232" lon="2.34216">
        <ele>129.39999389648</ele>
        <time>2015-08-30T08:42:21Z</time>
      </trkpt>
      <trkpt lat="49.38219" lon="2.34196">
        <ele>128.19999694824</ele>
        <time>2015-08-30T08:42:28Z</time>
      </trkpt>
      <trkpt lat="49.38202" lon="2.34185">
        <ele>125</ele>
        <time>2015-08-30T08:42:36Z</time>
      </trkpt>
      <trkpt lat="49.38184" lon="2.3419">
        <ele>122.80000305176</ele>
        <time>2015-08-30T08:42:44Z</time>
      </trkpt>
      <trkpt lat="49.38165" lon="2.34193">
        <ele>121.19999694824</ele>
        <time>2015-08-30T08:42:50Z</time>
      </trkpt>
      <trkpt lat="49.38153" lon="2.34195">
        <ele>120.19999694824</ele>
        <time>2015-08-30T08:42:55Z</time>
      </trkpt>
      <trkpt lat="49.38143" lon="2.34196">
        <ele>119.59999847412</ele>
        <time>2015-08-30T08:43:05Z</time>
      </trkpt>
      <trkpt lat="49.38126" lon="2.34195">
        <ele>119.19999694824</ele>
        <time>2015-08-30T08:43:10Z</time>
      </trkpt>
      <trkpt lat="49.38107" lon="2.34196">
        <ele>119.59999847412</ele>
        <time>2015-08-30T08:43:18Z</time>
      </trkpt>
      <trkpt lat="49.38087" lon="2.34201">
        <ele>121.59999847412</ele>
        <time>2015-08-30T08:43:26Z</time>
      </trkpt>
      <trkpt lat="49.38069" lon="2.34203">
        <ele>123.59999847412</ele>
        <time>2015-08-30T08:43:33Z</time>
      </trkpt>
      <trkpt lat="49.38052" lon="2.34208">
        <ele>125</ele>
        <time>2015-08-30T08:43:41Z</time>
      </trkpt>
      <trkpt lat="49.38034" lon="2.34201">
        <ele>127</ele>
        <time>2015-08-30T08:43:51Z</time>
      </trkpt>
      <trkpt lat="49.3802" lon="2.34196">
        <ele>130</ele>
        <time>2015-08-30T08:43:59Z</time>
      </trkpt>
      <trkpt lat="49.38021" lon="2.342">
        <ele>129.60000610352</ele>
        <time>2015-08-30T08:50:18Z</time>
      </trkpt>
      <trkpt lat="49.38016" lon="2.34209">
        <ele>130.19999694824</ele>
        <time>2015-08-30T08:50:23Z</time>
      </trkpt>
      <trkpt lat="49.38015" lon="2.34211">
        <ele>130.19999694824</ele>
        <time>2015-08-30T08:50:24Z</time>
      </trkpt>
      <trkpt lat="49.38013" lon="2.34216">
        <ele>130.60000610352</ele>
        <time>2015-08-30T08:50:30Z</time>
      </trkpt>
      <trkpt lat="49.38012" lon="2.34218">
        <ele>130.60000610352</ele>
        <time>2015-08-30T08:50:38Z</time>
      </trkpt>
      <trkpt lat="49.38006" lon="2.34222">
        <ele>131.80000305176</ele>
        <time>2015-08-30T08:50:44Z</time>
      </trkpt>
      <trkpt lat="49.38005" lon="2.34223">
        <ele>131.80000305176</ele>
        <time>2015-08-30T08:50:45Z</time>
      </trkpt>
      <trkpt lat="49.38005" lon="2.34225">
        <ele>131.60000610352</ele>
        <time>2015-08-30T08:50:47Z</time>
      </trkpt>
      <trkpt lat="49.38005" lon="2.34227">
        <ele>131.39999389648</ele>
        <time>2015-08-30T08:50:49Z</time>
      </trkpt>
      <trkpt lat="49.38001" lon="2.34235">
        <ele>131</ele>
        <time>2015-08-30T08:50:54Z</time>
      </trkpt>
      <trkpt lat="49.37997" lon="2.34242">
        <ele>131</ele>
        <time>2015-08-30T08:50:58Z</time>
      </trkpt>
      <trkpt lat="49.37987" lon="2.34256">
        <ele>132.39999389648</ele>
        <time>2015-08-30T08:51:06Z</time>
      </trkpt>
      <trkpt lat="49.37973" lon="2.34275">
        <ele>135.39999389648</ele>
        <time>2015-08-30T08:51:14Z</time>
      </trkpt>
      <trkpt lat="49.37956" lon="2.34288">
        <ele>137.19999694824</ele>
        <time>2015-08-30T08:51:27Z</time>
      </trkpt>
      <trkpt lat="49.37944" lon="2.34301">
        <ele>138.60000610352</ele>
        <time>2015-08-30T08:51:39Z</time>
      </trkpt>
      <trkpt lat="49.37929" lon="2.34314">
        <ele>140.60000610352</ele>
        <time>2015-08-30T08:51:50Z</time>
      </trkpt>
      <trkpt lat="49.37908" lon="2.34318">
        <ele>142.39999389648</ele>
        <time>2015-08-30T08:52:01Z</time>
      </trkpt>
      <trkpt lat="49.37905" lon="2.34318">
        <ele>142.80000305176</ele>
        <time>2015-08-30T08:52:05Z</time>
      </trkpt>
      <trkpt lat="49.37896" lon="2.34312">
        <ele>144</ele>
        <time>2015-08-30T08:52:11Z</time>
      </trkpt>
      <trkpt lat="49.37895" lon="2.34311">
        <ele>144</ele>
        <time>2015-08-30T08:52:12Z</time>
      </trkpt>
      <trkpt lat="49.37892" lon="2.3431">
        <ele>144.39999389648</ele>
        <time>2015-08-30T08:52:15Z</time>
      </trkpt>
      <trkpt lat="49.37884" lon="2.34296">
        <ele>145.80000305176</ele>
        <time>2015-08-30T08:52:28Z</time>
      </trkpt>
      <trkpt lat="49.37879" lon="2.34293">
        <ele>146.39999389648</ele>
        <time>2015-08-30T08:52:32Z</time>
      </trkpt>
      <trkpt lat="49.37873" lon="2.34282">
        <ele>147.60000610352</ele>
        <time>2015-08-30T08:52:42Z</time>
      </trkpt>
      <trkpt lat="49.37869" lon="2.34277">
        <ele>148.19999694824</ele>
        <time>2015-08-30T08:52:46Z</time>
      </trkpt>
      <trkpt lat="49.37867" lon="2.34276">
        <ele>148.39999389648</ele>
        <time>2015-08-30T08:52:48Z</time>
      </trkpt>
      <trkpt lat="49.3786" lon="2.34265">
        <ele>150</ele>
        <time>2015-08-30T08:52:57Z</time>
      </trkpt>
      <trkpt lat="49.37848" lon="2.34245">
        <ele>152.80000305176</ele>
        <time>2015-08-30T08:53:09Z</time>
      </trkpt>
      <trkpt lat="49.37846" lon="2.34235">
        <ele>153.19999694824</ele>
        <time>2015-08-30T08:53:15Z</time>
      </trkpt>
      <trkpt lat="49.37843" lon="2.34232">
        <ele>153.60000610352</ele>
        <time>2015-08-30T08:53:19Z</time>
      </trkpt>
      <trkpt lat="49.37827" lon="2.34229">
        <ele>156.19999694824</ele>
        <time>2015-08-30T08:53:31Z</time>
      </trkpt>
      <trkpt lat="49.37823" lon="2.34231">
        <ele>157</ele>
        <time>2015-08-30T08:53:35Z</time>
      </trkpt>
      <trkpt lat="49.37822" lon="2.34231">
        <ele>157.19999694824</ele>
        <time>2015-08-30T08:53:36Z</time>
      </trkpt>
      <trkpt lat="49.37815" lon="2.34232">
        <ele>158.19999694824</ele>
        <time>2015-08-30T08:53:44Z</time>
      </trkpt>
      <trkpt lat="49.37796" lon="2.34237">
        <ele>161.60000610352</ele>
        <time>2015-08-30T08:54:05Z</time>
      </trkpt>
      <trkpt lat="49.37794" lon="2.34238">
        <ele>161.80000305176</ele>
        <time>2015-08-30T08:54:06Z</time>
      </trkpt>
      <trkpt lat="49.37791" lon="2.34241">
        <ele>162.39999389648</ele>
        <time>2015-08-30T08:54:09Z</time>
      </trkpt>
      <trkpt lat="49.37787" lon="2.34245">
        <ele>163</ele>
        <time>2015-08-30T08:54:14Z</time>
      </trkpt>
      <trkpt lat="49.37781" lon="2.34246">
        <ele>164</ele>
        <time>2015-08-30T08:54:19Z</time>
      </trkpt>
      <trkpt lat="49.37775" lon="2.34256">
        <ele>163</ele>
        <time>2015-08-30T08:54:26Z</time>
      </trkpt>
      <trkpt lat="49.37772" lon="2.34262">
        <ele>162.39999389648</ele>
        <time>2015-08-30T08:54:29Z</time>
      </trkpt>
      <trkpt lat="49.37767" lon="2.34275">
        <ele>161</ele>
        <time>2015-08-30T08:54:34Z</time>
      </trkpt>
      <trkpt lat="49.37759" lon="2.34302">
        <ele>158.39999389648</ele>
        <time>2015-08-30T08:54:45Z</time>
      </trkpt>
      <trkpt lat="49.37757" lon="2.34305">
        <ele>158</ele>
        <time>2015-08-30T08:54:46Z</time>
      </trkpt>
      <trkpt lat="49.37744" lon="2.34326">
        <ele>158.80000305176</ele>
        <time>2015-08-30T08:54:54Z</time>
      </trkpt>
      <trkpt lat="49.37736" lon="2.34351">
        <ele>158.80000305176</ele>
        <time>2015-08-30T08:55:02Z</time>
      </trkpt>
      <trkpt lat="49.37735" lon="2.34373">
        <ele>158.60000610352</ele>
        <time>2015-08-30T08:55:10Z</time>
      </trkpt>
      <trkpt lat="49.37733" lon="2.34379">
        <ele>159.19999694824</ele>
        <time>2015-08-30T08:55:14Z</time>
      </trkpt>
      <trkpt lat="49.37732" lon="2.34382">
        <ele>159.60000610352</ele>
        <time>2015-08-30T08:55:21Z</time>
      </trkpt>
      <trkpt lat="49.37738" lon="2.34383">
        <ele>158.80000305176</ele>
        <time>2015-08-30T08:55:40Z</time>
      </trkpt>
      <trkpt lat="49.37737" lon="2.34385">
        <ele>159</ele>
        <time>2015-08-30T08:55:41Z</time>
      </trkpt>
      <trkpt lat="49.37733" lon="2.34396">
        <ele>160.19999694824</ele>
        <time>2015-08-30T08:55:50Z</time>
      </trkpt>
      <trkpt lat="49.3773" lon="2.34399">
        <ele>160.80000305176</ele>
        <time>2015-08-30T08:55:54Z</time>
      </trkpt>
      <trkpt lat="49.37729" lon="2.34408">
        <ele>161.60000610352</ele>
        <time>2015-08-30T08:56:07Z</time>
      </trkpt>
      <trkpt lat="49.37719" lon="2.34399">
        <ele>162.39999389648</ele>
        <time>2015-08-30T08:56:32Z</time>
      </trkpt>
      <trkpt lat="49.37717" lon="2.34397">
        <ele>162.39999389648</ele>
        <time>2015-08-30T08:56:33Z</time>
      </trkpt>
      <trkpt lat="49.37702" lon="2.3438">
        <ele>163.39999389648</ele>
        <time>2015-08-30T08:56:43Z</time>
      </trkpt>
      <trkpt lat="49.3769" lon="2.34359">
        <ele>162.80000305176</ele>
        <time>2015-08-30T08:56:53Z</time>
      </trkpt>
      <trkpt lat="49.37683" lon="2.34346">
        <ele>162</ele>
        <time>2015-08-30T08:57:01Z</time>
      </trkpt>
      <trkpt lat="49.37668" lon="2.34357">
        <ele>163</ele>
        <time>2015-08-30T08:57:10Z</time>
      </trkpt>
      <trkpt lat="49.37654" lon="2.34378">
        <ele>164.19999694824</ele>
        <time>2015-08-30T08:57:19Z</time>
      </trkpt>
      <trkpt lat="49.37637" lon="2.34395">
        <ele>164.60000610352</ele>
        <time>2015-08-30T08:57:25Z</time>
      </trkpt>
      <trkpt lat="49.37628" lon="2.34419">
        <ele>165</ele>
        <time>2015-08-30T08:57:32Z</time>
      </trkpt>
      <trkpt lat="49.37621" lon="2.34445">
        <ele>165</ele>
        <time>2015-08-30T08:57:39Z</time>
      </trkpt>
      <trkpt lat="49.37615" lon="2.34475">
        <ele>165.60000610352</ele>
        <time>2015-08-30T08:57:47Z</time>
      </trkpt>
      <trkpt lat="49.37611" lon="2.34504">
        <ele>165.80000305176</ele>
        <time>2015-08-30T08:57:55Z</time>
      </trkpt>
      <trkpt lat="49.37609" lon="2.34534">
        <ele>165</ele>
        <time>2015-08-30T08:58:04Z</time>
      </trkpt>
      <trkpt lat="49.37605" lon="2.34563">
        <ele>164.39999389648</ele>
        <time>2015-08-30T08:58:11Z</time>
      </trkpt>
      <trkpt lat="49.37602" lon="2.3459">
        <ele>164.39999389648</ele>
        <time>2015-08-30T08:58:19Z</time>
      </trkpt>
      <trkpt lat="49.37593" lon="2.3462">
        <ele>165.39999389648</ele>
        <time>2015-08-30T08:58:27Z</time>
      </trkpt>
      <trkpt lat="49.37581" lon="2.34644">
        <ele>165.60000610352</ele>
        <time>2015-08-30T08:58:35Z</time>
      </trkpt>
      <trkpt lat="49.37574" lon="2.34671">
        <ele>165</ele>
        <time>2015-08-30T08:58:42Z</time>
      </trkpt>
      <trkpt lat="49.37566" lon="2.347">
        <ele>164.19999694824</ele>
        <time>2015-08-30T08:58:49Z</time>
      </trkpt>
      <trkpt lat="49.37558" lon="2.34728">
        <ele>162.60000610352</ele>
        <time>2015-08-30T08:58:56Z</time>
      </trkpt>
      <trkpt lat="49.37554" lon="2.34758">
        <ele>161.80000305176</ele>
        <time>2015-08-30T08:59:04Z</time>
      </trkpt>
      <trkpt lat="49.37555" lon="2.34786">
        <ele>162</ele>
        <time>2015-08-30T08:59:12Z</time>
      </trkpt>
      <trkpt lat="49.37552" lon="2.34816">
        <ele>161.80000305176</ele>
        <time>2015-08-30T08:59:20Z</time>
      </trkpt>
      <trkpt lat="49.37554" lon="2.34846">
        <ele>162.39999389648</ele>
        <time>2015-08-30T08:59:29Z</time>
      </trkpt>
      <trkpt lat="49.37553" lon="2.34877">
        <ele>163.19999694824</ele>
        <time>2015-08-30T08:59:37Z</time>
      </trkpt>
      <trkpt lat="49.37548" lon="2.34904">
        <ele>163.39999389648</ele>
        <time>2015-08-30T08:59:45Z</time>
      </trkpt>
      <trkpt lat="49.37545" lon="2.34931">
        <ele>163.39999389648</ele>
        <time>2015-08-30T08:59:53Z</time>
      </trkpt>
      <trkpt lat="49.37541" lon="2.3496">
        <ele>163.39999389648</ele>
        <time>2015-08-30T09:00:01Z</time>
      </trkpt>
      <trkpt lat="49.37537" lon="2.3499">
        <ele>163.39999389648</ele>
        <time>2015-08-30T09:00:07Z</time>
      </trkpt>
      <trkpt lat="49.37533" lon="2.35017">
        <ele>163.39999389648</ele>
        <time>2015-08-30T09:00:13Z</time>
      </trkpt>
      <trkpt lat="49.37525" lon="2.35043">
        <ele>163.39999389648</ele>
        <time>2015-08-30T09:00:19Z</time>
      </trkpt>
      <trkpt lat="49.37516" lon="2.35069">
        <ele>163.19999694824</ele>
        <time>2015-08-30T09:00:26Z</time>
      </trkpt>
      <trkpt lat="49.37511" lon="2.35097">
        <ele>163</ele>
        <time>2015-08-30T09:00:33Z</time>
      </trkpt>
      <trkpt lat="49.37504" lon="2.35122">
        <ele>162.80000305176</ele>
        <time>2015-08-30T09:00:41Z</time>
      </trkpt>
      <trkpt lat="49.37494" lon="2.35149">
        <ele>162.60000610352</ele>
        <time>2015-08-30T09:00:48Z</time>
      </trkpt>
      <trkpt lat="49.37491" lon="2.35179">
        <ele>162.80000305176</ele>
        <time>2015-08-30T09:00:57Z</time>
      </trkpt>
      <trkpt lat="49.37489" lon="2.35208">
        <ele>163</ele>
        <time>2015-08-30T09:01:05Z</time>
      </trkpt>
      <trkpt lat="49.37484" lon="2.35235">
        <ele>163.80000305176</ele>
        <time>2015-08-30T09:01:11Z</time>
      </trkpt>
      <trkpt lat="49.37477" lon="2.35264">
        <ele>164.39999389648</ele>
        <time>2015-08-30T09:01:19Z</time>
      </trkpt>
      <trkpt lat="49.37468" lon="2.35292">
        <ele>164.39999389648</ele>
        <time>2015-08-30T09:01:27Z</time>
      </trkpt>
      <trkpt lat="49.37461" lon="2.35317">
        <ele>164.39999389648</ele>
        <time>2015-08-30T09:01:35Z</time>
      </trkpt>
      <trkpt lat="49.3746" lon="2.35347">
        <ele>164.19999694824</ele>
        <time>2015-08-30T09:01:43Z</time>
      </trkpt>
      <trkpt lat="49.37458" lon="2.35375">
        <ele>163.80000305176</ele>
        <time>2015-08-30T09:01:51Z</time>
      </trkpt>
      <trkpt lat="49.37454" lon="2.35402">
        <ele>163.19999694824</ele>
        <time>2015-08-30T09:01:59Z</time>
      </trkpt>
      <trkpt lat="49.37447" lon="2.35428">
        <ele>163</ele>
        <time>2015-08-30T09:02:06Z</time>
      </trkpt>
      <trkpt lat="49.37438" lon="2.35454">
        <ele>163</ele>
        <time>2015-08-30T09:02:13Z</time>
      </trkpt>
      <trkpt lat="49.37427" lon="2.35476">
        <ele>163</ele>
        <time>2015-08-30T09:02:20Z</time>
      </trkpt>
      <trkpt lat="49.37423" lon="2.35503">
        <ele>163</ele>
        <time>2015-08-30T09:02:29Z</time>
      </trkpt>
      <trkpt lat="49.37424" lon="2.35536">
        <ele>163.39999389648</ele>
        <time>2015-08-30T09:02:38Z</time>
      </trkpt>
      <trkpt lat="49.3742" lon="2.35564">
        <ele>163.39999389648</ele>
        <time>2015-08-30T09:02:46Z</time>
      </trkpt>
      <trkpt lat="49.37417" lon="2.35593">
        <ele>162.80000305176</ele>
        <time>2015-08-30T09:02:54Z</time>
      </trkpt>
      <trkpt lat="49.37412" lon="2.35621">
        <ele>162.80000305176</ele>
        <time>2015-08-30T09:03:02Z</time>
      </trkpt>
      <trkpt lat="49.37409" lon="2.35649">
        <ele>162.60000610352</ele>
        <time>2015-08-30T09:03:09Z</time>
      </trkpt>
      <trkpt lat="49.37403" lon="2.35679">
        <ele>163.19999694824</ele>
        <time>2015-08-30T09:03:17Z</time>
      </trkpt>
      <trkpt lat="49.37399" lon="2.35706">
        <ele>164.60000610352</ele>
        <time>2015-08-30T09:03:23Z</time>
      </trkpt>
      <trkpt lat="49.37394" lon="2.35735">
        <ele>165.80000305176</ele>
        <time>2015-08-30T09:03:30Z</time>
      </trkpt>
      <trkpt lat="49.37396" lon="2.35766">
        <ele>166.39999389648</ele>
        <time>2015-08-30T09:03:37Z</time>
      </trkpt>
      <trkpt lat="49.37397" lon="2.35794">
        <ele>166.80000305176</ele>
        <time>2015-08-30T09:03:45Z</time>
      </trkpt>
      <trkpt lat="49.37395" lon="2.35825">
        <ele>167.60000610352</ele>
        <time>2015-08-30T09:03:54Z</time>
      </trkpt>
      <trkpt lat="49.37387" lon="2.35853">
        <ele>167.60000610352</ele>
        <time>2015-08-30T09:04:01Z</time>
      </trkpt>
      <trkpt lat="49.37381" lon="2.35882">
        <ele>167.80000305176</ele>
        <time>2015-08-30T09:04:08Z</time>
      </trkpt>
      <trkpt lat="49.37374" lon="2.35909">
        <ele>168</ele>
        <time>2015-08-30T09:04:15Z</time>
      </trkpt>
      <trkpt lat="49.37366" lon="2.35935">
        <ele>168</ele>
        <time>2015-08-30T09:04:23Z</time>
      </trkpt>
      <trkpt lat="49.37358" lon="2.35963">
        <ele>167.80000305176</ele>
        <time>2015-08-30T09:04:32Z</time>
      </trkpt>
      <trkpt lat="49.37357" lon="2.35991">
        <ele>167.80000305176</ele>
        <time>2015-08-30T09:04:41Z</time>
      </trkpt>
      <trkpt lat="49.37358" lon="2.35995">
        <ele>167.80000305176</ele>
        <time>2015-08-30T09:04:42Z</time>
      </trkpt>
      <trkpt lat="49.37354" lon="2.36021">
        <ele>168.39999389648</ele>
        <time>2015-08-30T09:04:49Z</time>
      </trkpt>
      <trkpt lat="49.37354" lon="2.36024">
        <ele>168.39999389648</ele>
        <time>2015-08-30T09:04:50Z</time>
      </trkpt>
      <trkpt lat="49.37352" lon="2.36051">
        <ele>169</ele>
        <time>2015-08-30T09:04:58Z</time>
      </trkpt>
      <trkpt lat="49.37348" lon="2.36079">
        <ele>169</ele>
        <time>2015-08-30T09:05:06Z</time>
      </trkpt>
      <trkpt lat="49.37349" lon="2.36102">
        <ele>168.39999389648</ele>
        <time>2015-08-30T09:05:13Z</time>
      </trkpt>
      <trkpt lat="49.37356" lon="2.36109">
        <ele>168.39999389648</ele>
        <time>2015-08-30T09:05:19Z</time>
      </trkpt>
      <trkpt lat="49.37374" lon="2.36118">
        <ele>169.19999694824</ele>
        <time>2015-08-30T09:05:34Z</time>
      </trkpt>
      <trkpt lat="49.37374" lon="2.36118">
        <ele>169.19999694824</ele>
        <time>2015-08-30T09:05:35Z</time>
      </trkpt>
      <trkpt lat="49.37374" lon="2.36119">
        <ele>169.19999694824</ele>
        <time>2015-08-30T09:05:38Z</time>
      </trkpt>
      <trkpt lat="49.37388" lon="2.36127">
        <ele>169.39999389648</ele>
        <time>2015-08-30T09:05:56Z</time>
      </trkpt>
      <trkpt lat="49.37388" lon="2.36128">
        <ele>169.39999389648</ele>
        <time>2015-08-30T09:05:57Z</time>
      </trkpt>
      <trkpt lat="49.37394" lon="2.36128">
        <ele>169.80000305176</ele>
        <time>2015-08-30T09:06:03Z</time>
      </trkpt>
      <trkpt lat="49.37413" lon="2.36132">
        <ele>170.39999389648</ele>
        <time>2015-08-30T09:06:14Z</time>
      </trkpt>
      <trkpt lat="49.37417" lon="2.36135">
        <ele>170.60000610352</ele>
        <time>2015-08-30T09:06:17Z</time>
      </trkpt>
      <trkpt lat="49.37436" lon="2.36142">
        <ele>171</ele>
        <time>2015-08-30T09:06:26Z</time>
      </trkpt>
      <trkpt lat="49.37454" lon="2.36147">
        <ele>171</ele>
        <time>2015-08-30T09:06:34Z</time>
      </trkpt>
      <trkpt lat="49.37473" lon="2.36151">
        <ele>170.19999694824</ele>
        <time>2015-08-30T09:06:42Z</time>
      </trkpt>
      <trkpt lat="49.37492" lon="2.36153">
        <ele>169.60000610352</ele>
        <time>2015-08-30T09:06:49Z</time>
      </trkpt>
      <trkpt lat="49.37512" lon="2.36157">
        <ele>168.80000305176</ele>
        <time>2015-08-30T09:06:56Z</time>
      </trkpt>
      <trkpt lat="49.3753" lon="2.36161">
        <ele>168</ele>
        <time>2015-08-30T09:07:02Z</time>
      </trkpt>
      <trkpt lat="49.37551" lon="2.36169">
        <ele>166.39999389648</ele>
        <time>2015-08-30T09:07:07Z</time>
      </trkpt>
      <trkpt lat="49.3756" lon="2.36171">
        <ele>165.80000305176</ele>
        <time>2015-08-30T09:07:11Z</time>
      </trkpt>
      <trkpt lat="49.37566" lon="2.36149">
        <ele>165</ele>
        <time>2015-08-30T09:07:21Z</time>
      </trkpt>
      <trkpt lat="49.3757" lon="2.36149">
        <ele>164.80000305176</ele>
        <time>2015-08-30T09:07:23Z</time>
      </trkpt>
      <trkpt lat="49.37588" lon="2.36155">
        <ele>163.19999694824</ele>
        <time>2015-08-30T09:07:29Z</time>
      </trkpt>
      <trkpt lat="49.37606" lon="2.36163">
        <ele>161.80000305176</ele>
        <time>2015-08-30T09:07:41Z</time>
      </trkpt>
      <trkpt lat="49.3761" lon="2.36163">
        <ele>161.39999389648</ele>
        <time>2015-08-30T09:07:44Z</time>
      </trkpt>
      <trkpt lat="49.37629" lon="2.36169">
        <ele>160.60000610352</ele>
        <time>2015-08-30T09:07:53Z</time>
      </trkpt>
      <trkpt lat="49.37648" lon="2.36174">
        <ele>160.19999694824</ele>
        <time>2015-08-30T09:08:02Z</time>
      </trkpt>
      <trkpt lat="49.37668" lon="2.36183">
        <ele>159.60000610352</ele>
        <time>2015-08-30T09:08:10Z</time>
      </trkpt>
      <trkpt lat="49.37688" lon="2.36187">
        <ele>159.39999389648</ele>
        <time>2015-08-30T09:08:18Z</time>
      </trkpt>
      <trkpt lat="49.37707" lon="2.36193">
        <ele>158.60000610352</ele>
        <time>2015-08-30T09:08:26Z</time>
      </trkpt>
      <trkpt lat="49.37726" lon="2.36202">
        <ele>157.60000610352</ele>
        <time>2015-08-30T09:08:34Z</time>
      </trkpt>
      <trkpt lat="49.37744" lon="2.36208">
        <ele>156.80000305176</ele>
        <time>2015-08-30T09:08:41Z</time>
      </trkpt>
      <trkpt lat="49.37753" lon="2.36213">
        <ele>156.19999694824</ele>
        <time>2015-08-30T09:08:45Z</time>
      </trkpt>
      <trkpt lat="49.37767" lon="2.36219">
        <ele>155.39999389648</ele>
        <time>2015-08-30T09:08:53Z</time>
      </trkpt>
      <trkpt lat="49.37773" lon="2.3622">
        <ele>155</ele>
        <time>2015-08-30T09:09:02Z</time>
      </trkpt>
      <trkpt lat="49.37779" lon="2.36214">
        <ele>155</ele>
        <time>2015-08-30T09:09:10Z</time>
      </trkpt>
      <trkpt lat="49.37781" lon="2.36213">
        <ele>154.80000305176</ele>
        <time>2015-08-30T09:09:11Z</time>
      </trkpt>
      <trkpt lat="49.3779" lon="2.362">
        <ele>154.60000610352</ele>
        <time>2015-08-30T09:09:21Z</time>
      </trkpt>
      <trkpt lat="49.3779" lon="2.36199">
        <ele>154.60000610352</ele>
        <time>2015-08-30T09:09:22Z</time>
      </trkpt>
      <trkpt lat="49.37799" lon="2.36189">
        <ele>154.39999389648</ele>
        <time>2015-08-30T09:09:27Z</time>
      </trkpt>
      <trkpt lat="49.37812" lon="2.36169">
        <ele>153</ele>
        <time>2015-08-30T09:09:36Z</time>
      </trkpt>
      <trkpt lat="49.37815" lon="2.36168">
        <ele>152.80000305176</ele>
        <time>2015-08-30T09:09:37Z</time>
      </trkpt>
      <trkpt lat="49.37835" lon="2.36167">
        <ele>150.80000305176</ele>
        <time>2015-08-30T09:09:46Z</time>
      </trkpt>
      <trkpt lat="49.37854" lon="2.36164">
        <ele>149</ele>
        <time>2015-08-30T09:09:53Z</time>
      </trkpt>
      <trkpt lat="49.37873" lon="2.36159">
        <ele>146.80000305176</ele>
        <time>2015-08-30T09:10:00Z</time>
      </trkpt>
      <trkpt lat="49.37891" lon="2.3615">
        <ele>144.19999694824</ele>
        <time>2015-08-30T09:10:09Z</time>
      </trkpt>
      <trkpt lat="49.3791" lon="2.36144">
        <ele>141.39999389648</ele>
        <time>2015-08-30T09:10:18Z</time>
      </trkpt>
      <trkpt lat="49.37929" lon="2.36146">
        <ele>138.60000610352</ele>
        <time>2015-08-30T09:10:27Z</time>
      </trkpt>
      <trkpt lat="49.37949" lon="2.36147">
        <ele>135.80000305176</ele>
        <time>2015-08-30T09:10:34Z</time>
      </trkpt>
      <trkpt lat="49.37971" lon="2.36155">
        <ele>134</ele>
        <time>2015-08-30T09:10:40Z</time>
      </trkpt>
      <trkpt lat="49.37988" lon="2.36164">
        <ele>132.60000610352</ele>
        <time>2015-08-30T09:10:46Z</time>
      </trkpt>
      <trkpt lat="49.38007" lon="2.36174">
        <ele>131.39999389648</ele>
        <time>2015-08-30T09:10:53Z</time>
      </trkpt>
      <trkpt lat="49.38025" lon="2.36185">
        <ele>130.60000610352</ele>
        <time>2015-08-30T09:11:00Z</time>
      </trkpt>
      <trkpt lat="49.38042" lon="2.36199">
        <ele>129.39999389648</ele>
        <time>2015-08-30T09:11:08Z</time>
      </trkpt>
      <trkpt lat="49.38062" lon="2.36211">
        <ele>127.80000305176</ele>
        <time>2015-08-30T09:11:14Z</time>
      </trkpt>
      <trkpt lat="49.38078" lon="2.36227">
        <ele>127</ele>
        <time>2015-08-30T09:11:22Z</time>
      </trkpt>
      <trkpt lat="49.38095" lon="2.36241">
        <ele>125.80000305176</ele>
        <time>2015-08-30T09:11:27Z</time>
      </trkpt>
      <trkpt lat="49.38105" lon="2.36264">
        <ele>124.19999694824</ele>
        <time>2015-08-30T09:11:34Z</time>
      </trkpt>
      <trkpt lat="49.381" lon="2.36293">
        <ele>122.80000305176</ele>
        <time>2015-08-30T09:11:42Z</time>
      </trkpt>
      <trkpt lat="49.38095" lon="2.36323">
        <ele>122.59999847412</ele>
        <time>2015-08-30T09:11:51Z</time>
      </trkpt>
      <trkpt lat="49.38092" lon="2.36351">
        <ele>122.80000305176</ele>
        <time>2015-08-30T09:11:59Z</time>
      </trkpt>
      <trkpt lat="49.38085" lon="2.36377">
        <ele>123</ele>
        <time>2015-08-30T09:12:07Z</time>
      </trkpt>
      <trkpt lat="49.38076" lon="2.36401">
        <ele>124.40000152588</ele>
        <time>2015-08-30T09:12:16Z</time>
      </trkpt>
      <trkpt lat="49.38083" lon="2.3643">
        <ele>122.19999694824</ele>
        <time>2015-08-30T09:12:24Z</time>
      </trkpt>
      <trkpt lat="49.38085" lon="2.36459">
        <ele>121</ele>
        <time>2015-08-30T09:12:30Z</time>
      </trkpt>
      <trkpt lat="49.38087" lon="2.36487">
        <ele>121</ele>
        <time>2015-08-30T09:12:38Z</time>
      </trkpt>
      <trkpt lat="49.38082" lon="2.36517">
        <ele>122</ele>
        <time>2015-08-30T09:12:45Z</time>
      </trkpt>
      <trkpt lat="49.38076" lon="2.36545">
        <ele>122.40000152588</ele>
        <time>2015-08-30T09:12:58Z</time>
      </trkpt>
      <trkpt lat="49.38068" lon="2.36573">
        <ele>123</ele>
        <time>2015-08-30T09:13:06Z</time>
      </trkpt>
      <trkpt lat="49.38058" lon="2.36598">
        <ele>125</ele>
        <time>2015-08-30T09:13:14Z</time>
      </trkpt>
      <trkpt lat="49.38043" lon="2.36616">
        <ele>128.39999389648</ele>
        <time>2015-08-30T09:13:22Z</time>
      </trkpt>
      <trkpt lat="49.38035" lon="2.36641">
        <ele>129.80000305176</ele>
        <time>2015-08-30T09:13:30Z</time>
      </trkpt>
      <trkpt lat="49.38035" lon="2.36645">
        <ele>129.60000610352</ele>
        <time>2015-08-30T09:13:31Z</time>
      </trkpt>
      <trkpt lat="49.38029" lon="2.36672">
        <ele>130.19999694824</ele>
        <time>2015-08-30T09:13:39Z</time>
      </trkpt>
      <trkpt lat="49.3802" lon="2.36696">
        <ele>131.39999389648</ele>
        <time>2015-08-30T09:13:51Z</time>
      </trkpt>
      <trkpt lat="49.38014" lon="2.36703">
        <ele>132.19999694824</ele>
        <time>2015-08-30T09:13:57Z</time>
      </trkpt>
      <trkpt lat="49.3801" lon="2.3671">
        <ele>132.80000305176</ele>
        <time>2015-08-30T09:14:02Z</time>
      </trkpt>
      <trkpt lat="49.38002" lon="2.36717">
        <ele>134</ele>
        <time>2015-08-30T09:14:07Z</time>
      </trkpt>
      <trkpt lat="49.37991" lon="2.36738">
        <ele>136</ele>
        <time>2015-08-30T09:14:15Z</time>
      </trkpt>
      <trkpt lat="49.37977" lon="2.36756">
        <ele>139</ele>
        <time>2015-08-30T09:14:23Z</time>
      </trkpt>
      <trkpt lat="49.37967" lon="2.36773">
        <ele>141.80000305176</ele>
        <time>2015-08-30T09:14:32Z</time>
      </trkpt>
      <trkpt lat="49.37963" lon="2.36797">
        <ele>142.19999694824</ele>
        <time>2015-08-30T09:14:39Z</time>
      </trkpt>
      <trkpt lat="49.37957" lon="2.36819">
        <ele>143</ele>
        <time>2015-08-30T09:14:48Z</time>
      </trkpt>
      <trkpt lat="49.37941" lon="2.36829">
        <ele>144.60000610352</ele>
        <time>2015-08-30T09:15:05Z</time>
      </trkpt>
      <trkpt lat="49.37928" lon="2.36833">
        <ele>145.80000305176</ele>
        <time>2015-08-30T09:15:19Z</time>
      </trkpt>
      <trkpt lat="49.37924" lon="2.36836">
        <ele>146.19999694824</ele>
        <time>2015-08-30T09:15:26Z</time>
      </trkpt>
      <trkpt lat="49.37919" lon="2.36837">
        <ele>146.80000305176</ele>
        <time>2015-08-30T09:15:32Z</time>
      </trkpt>
      <trkpt lat="49.3791" lon="2.36837">
        <ele>147.39999389648</ele>
        <time>2015-08-30T09:15:37Z</time>
      </trkpt>
      <trkpt lat="49.37907" lon="2.36838">
        <ele>147.80000305176</ele>
        <time>2015-08-30T09:15:39Z</time>
      </trkpt>
      <trkpt lat="49.37903" lon="2.36844">
        <ele>148.39999389648</ele>
        <time>2015-08-30T09:15:44Z</time>
      </trkpt>
      <trkpt lat="49.37899" lon="2.36849">
        <ele>149</ele>
        <time>2015-08-30T09:15:54Z</time>
      </trkpt>
      <trkpt lat="49.37883" lon="2.36843">
        <ele>150</ele>
        <time>2015-08-30T09:16:00Z</time>
      </trkpt>
      <trkpt lat="49.37867" lon="2.36846">
        <ele>151.19999694824</ele>
        <time>2015-08-30T09:16:14Z</time>
      </trkpt>
      <trkpt lat="49.37865" lon="2.36858">
        <ele>151.60000610352</ele>
        <time>2015-08-30T09:16:21Z</time>
      </trkpt>
      <trkpt lat="49.37863" lon="2.36868">
        <ele>152</ele>
        <time>2015-08-30T09:16:26Z</time>
      </trkpt>
      <trkpt lat="49.3786" lon="2.36882">
        <ele>152.80000305176</ele>
        <time>2015-08-30T09:16:33Z</time>
      </trkpt>
      <trkpt lat="49.37852" lon="2.36907">
        <ele>154.19999694824</ele>
        <time>2015-08-30T09:16:49Z</time>
      </trkpt>
      <trkpt lat="49.3785" lon="2.36911">
        <ele>154.19999694824</ele>
        <time>2015-08-30T09:16:52Z</time>
      </trkpt>
      <trkpt lat="49.37849" lon="2.36915">
        <ele>154.19999694824</ele>
        <time>2015-08-30T09:16:55Z</time>
      </trkpt>
      <trkpt lat="49.37844" lon="2.36915">
        <ele>154.60000610352</ele>
        <time>2015-08-30T09:16:59Z</time>
      </trkpt>
      <trkpt lat="49.37831" lon="2.36919">
        <ele>155.39999389648</ele>
        <time>2015-08-30T09:17:11Z</time>
      </trkpt>
      <trkpt lat="49.37818" lon="2.3694">
        <ele>156.60000610352</ele>
        <time>2015-08-30T09:17:24Z</time>
      </trkpt>
      <trkpt lat="49.37817" lon="2.36942">
        <ele>156.80000305176</ele>
        <time>2015-08-30T09:17:25Z</time>
      </trkpt>
      <trkpt lat="49.37802" lon="2.36958">
        <ele>158.39999389648</ele>
        <time>2015-08-30T09:17:39Z</time>
      </trkpt>
      <trkpt lat="49.37798" lon="2.36969">
        <ele>159</ele>
        <time>2015-08-30T09:17:45Z</time>
      </trkpt>
      <trkpt lat="49.37794" lon="2.36988">
        <ele>159.60000610352</ele>
        <time>2015-08-30T09:17:50Z</time>
      </trkpt>
      <trkpt lat="49.37796" lon="2.37006">
        <ele>160</ele>
        <time>2015-08-30T09:17:55Z</time>
      </trkpt>
      <trkpt lat="49.37791" lon="2.37035">
        <ele>161</ele>
        <time>2015-08-30T09:18:03Z</time>
      </trkpt>
      <trkpt lat="49.37792" lon="2.37037">
        <ele>161</ele>
        <time>2015-08-30T09:18:04Z</time>
      </trkpt>
      <trkpt lat="49.37806" lon="2.37055">
        <ele>160.39999389648</ele>
        <time>2015-08-30T09:18:13Z</time>
      </trkpt>
      <trkpt lat="49.37808" lon="2.37057">
        <ele>160.19999694824</ele>
        <time>2015-08-30T09:18:14Z</time>
      </trkpt>
      <trkpt lat="49.37822" lon="2.37078">
        <ele>159.39999389648</ele>
        <time>2015-08-30T09:18:24Z</time>
      </trkpt>
      <trkpt lat="49.37839" lon="2.37094">
        <ele>159</ele>
        <time>2015-08-30T09:18:32Z</time>
      </trkpt>
      <trkpt lat="49.37855" lon="2.37111">
        <ele>158.60000610352</ele>
        <time>2015-08-30T09:18:38Z</time>
      </trkpt>
      <trkpt lat="49.37872" lon="2.37126">
        <ele>158.39999389648</ele>
        <time>2015-08-30T09:18:45Z</time>
      </trkpt>
      <trkpt lat="49.37883" lon="2.37138">
        <ele>158.80000305176</ele>
        <time>2015-08-30T09:18:50Z</time>
      </trkpt>
      <trkpt lat="49.37888" lon="2.37152">
        <ele>159.39999389648</ele>
        <time>2015-08-30T09:18:54Z</time>
      </trkpt>
      <trkpt lat="49.37889" lon="2.37155">
        <ele>159.60000610352</ele>
        <time>2015-08-30T09:18:55Z</time>
      </trkpt>
      <trkpt lat="49.37892" lon="2.3718">
        <ele>160.19999694824</ele>
        <time>2015-08-30T09:19:03Z</time>
      </trkpt>
      <trkpt lat="49.37892" lon="2.37181">
        <ele>160.19999694824</ele>
        <time>2015-08-30T09:19:04Z</time>
      </trkpt>
      <trkpt lat="49.37908" lon="2.37164">
        <ele>159.39999389648</ele>
        <time>2015-08-30T09:19:14Z</time>
      </trkpt>
      <trkpt lat="49.37923" lon="2.37149">
        <ele>158</ele>
        <time>2015-08-30T09:19:23Z</time>
      </trkpt>
      <trkpt lat="49.3794" lon="2.37133">
        <ele>157</ele>
        <time>2015-08-30T09:19:33Z</time>
      </trkpt>
      <trkpt lat="49.37957" lon="2.37118">
        <ele>156.19999694824</ele>
        <time>2015-08-30T09:19:42Z</time>
      </trkpt>
      <trkpt lat="49.37966" lon="2.37107">
        <ele>155.39999389648</ele>
        <time>2015-08-30T09:19:47Z</time>
      </trkpt>
      <trkpt lat="49.37975" lon="2.37101">
        <ele>155.39999389648</ele>
        <time>2015-08-30T09:19:50Z</time>
      </trkpt>
      <trkpt lat="49.37994" lon="2.37107">
        <ele>155.60000610352</ele>
        <time>2015-08-30T09:19:55Z</time>
      </trkpt>
      <trkpt lat="49.38005" lon="2.37114">
        <ele>155.60000610352</ele>
        <time>2015-08-30T09:19:58Z</time>
      </trkpt>
      <trkpt lat="49.38024" lon="2.37127">
        <ele>156</ele>
        <time>2015-08-30T09:20:05Z</time>
      </trkpt>
      <trkpt lat="49.3804" lon="2.3714">
        <ele>155.60000610352</ele>
        <time>2015-08-30T09:20:12Z</time>
      </trkpt>
      <trkpt lat="49.38057" lon="2.37155">
        <ele>154.80000305176</ele>
        <time>2015-08-30T09:20:18Z</time>
      </trkpt>
      <trkpt lat="49.38073" lon="2.3717">
        <ele>154</ele>
        <time>2015-08-30T09:20:24Z</time>
      </trkpt>
      <trkpt lat="49.38091" lon="2.37185">
        <ele>153.39999389648</ele>
        <time>2015-08-30T09:20:31Z</time>
      </trkpt>
      <trkpt lat="49.38107" lon="2.37202">
        <ele>152.80000305176</ele>
        <time>2015-08-30T09:20:38Z</time>
      </trkpt>
      <trkpt lat="49.38125" lon="2.37218">
        <ele>152.60000610352</ele>
        <time>2015-08-30T09:20:45Z</time>
      </trkpt>
      <trkpt lat="49.38141" lon="2.37236">
        <ele>152.60000610352</ele>
        <time>2015-08-30T09:20:52Z</time>
      </trkpt>
      <trkpt lat="49.38157" lon="2.37255">
        <ele>152.60000610352</ele>
        <time>2015-08-30T09:20:59Z</time>
      </trkpt>
      <trkpt lat="49.38172" lon="2.37275">
        <ele>152.60000610352</ele>
        <time>2015-08-30T09:21:06Z</time>
      </trkpt>
      <trkpt lat="49.38186" lon="2.37292">
        <ele>152.60000610352</ele>
        <time>2015-08-30T09:21:13Z</time>
      </trkpt>
      <trkpt lat="49.38204" lon="2.37309">
        <ele>152.60000610352</ele>
        <time>2015-08-30T09:21:20Z</time>
      </trkpt>
      <trkpt lat="49.38219" lon="2.37324">
        <ele>152.19999694824</ele>
        <time>2015-08-30T09:21:26Z</time>
      </trkpt>
      <trkpt lat="49.38237" lon="2.37342">
        <ele>151.60000610352</ele>
        <time>2015-08-30T09:21:33Z</time>
      </trkpt>
      <trkpt lat="49.38254" lon="2.37357">
        <ele>151</ele>
        <time>2015-08-30T09:21:40Z</time>
      </trkpt>
      <trkpt lat="49.38268" lon="2.37375">
        <ele>150.39999389648</ele>
        <time>2015-08-30T09:21:47Z</time>
      </trkpt>
      <trkpt lat="49.38282" lon="2.37397">
        <ele>150</ele>
        <time>2015-08-30T09:21:56Z</time>
      </trkpt>
      <trkpt lat="49.38282" lon="2.37408">
        <ele>150</ele>
        <time>2015-08-30T09:21:59Z</time>
      </trkpt>
      <trkpt lat="49.38274" lon="2.37436">
        <ele>149.80000305176</ele>
        <time>2015-08-30T09:22:07Z</time>
      </trkpt>
      <trkpt lat="49.38265" lon="2.37465">
        <ele>149.60000610352</ele>
        <time>2015-08-30T09:22:14Z</time>
      </trkpt>
      <trkpt lat="49.38255" lon="2.3749">
        <ele>149.80000305176</ele>
        <time>2015-08-30T09:22:20Z</time>
      </trkpt>
      <trkpt lat="49.38251" lon="2.37521">
        <ele>146.80000305176</ele>
        <time>2015-08-30T09:22:28Z</time>
      </trkpt>
      <trkpt lat="49.3824" lon="2.37547">
        <ele>144.39999389648</ele>
        <time>2015-08-30T09:22:35Z</time>
      </trkpt>
      <trkpt lat="49.38227" lon="2.37566">
        <ele>144.39999389648</ele>
        <time>2015-08-30T09:22:41Z</time>
      </trkpt>
      <trkpt lat="49.38213" lon="2.37589">
        <ele>143.80000305176</ele>
        <time>2015-08-30T09:22:49Z</time>
      </trkpt>
      <trkpt lat="49.38198" lon="2.37607">
        <ele>143.60000610352</ele>
        <time>2015-08-30T09:22:57Z</time>
      </trkpt>
      <trkpt lat="49.38182" lon="2.37627">
        <ele>143</ele>
        <time>2015-08-30T09:23:06Z</time>
      </trkpt>
      <trkpt lat="49.38163" lon="2.37634">
        <ele>144.60000610352</ele>
        <time>2015-08-30T09:23:14Z</time>
      </trkpt>
      <trkpt lat="49.38144" lon="2.3764">
        <ele>147.39999389648</ele>
        <time>2015-08-30T09:23:21Z</time>
      </trkpt>
      <trkpt lat="49.38128" lon="2.37657">
        <ele>149.19999694824</ele>
        <time>2015-08-30T09:23:28Z</time>
      </trkpt>
      <trkpt lat="49.38114" lon="2.37676">
        <ele>149.60000610352</ele>
        <time>2015-08-30T09:23:35Z</time>
      </trkpt>
      <trkpt lat="49.38112" lon="2.37679">
        <ele>149.19999694824</ele>
        <time>2015-08-30T09:23:36Z</time>
      </trkpt>
      <trkpt lat="49.38097" lon="2.37699">
        <ele>147</ele>
        <time>2015-08-30T09:23:43Z</time>
      </trkpt>
      <trkpt lat="49.38081" lon="2.37715">
        <ele>145.60000610352</ele>
        <time>2015-08-30T09:23:52Z</time>
      </trkpt>
      <trkpt lat="49.38067" lon="2.37734">
        <ele>145.60000610352</ele>
        <time>2015-08-30T09:24:01Z</time>
      </trkpt>
      <trkpt lat="49.38056" lon="2.37756">
        <ele>145.80000305176</ele>
        <time>2015-08-30T09:24:07Z</time>
      </trkpt>
      <trkpt lat="49.38049" lon="2.37785">
        <ele>145.80000305176</ele>
        <time>2015-08-30T09:24:13Z</time>
      </trkpt>
      <trkpt lat="49.3804" lon="2.37811">
        <ele>144.80000305176</ele>
        <time>2015-08-30T09:24:20Z</time>
      </trkpt>
      <trkpt lat="49.38037" lon="2.37817">
        <ele>144.60000610352</ele>
        <time>2015-08-30T09:24:22Z</time>
      </trkpt>
      <trkpt lat="49.38034" lon="2.37827">
        <ele>144.19999694824</ele>
        <time>2015-08-30T09:24:27Z</time>
      </trkpt>
      <trkpt lat="49.38034" lon="2.37829">
        <ele>144</ele>
        <time>2015-08-30T09:24:28Z</time>
      </trkpt>
      <trkpt lat="49.38029" lon="2.37851">
        <ele>143</ele>
        <time>2015-08-30T09:24:42Z</time>
      </trkpt>
      <trkpt lat="49.38012" lon="2.37865">
        <ele>142.39999389648</ele>
        <time>2015-08-30T09:25:00Z</time>
      </trkpt>
      <trkpt lat="49.38009" lon="2.37868">
        <ele>142.19999694824</ele>
        <time>2015-08-30T09:25:05Z</time>
      </trkpt>
      <trkpt lat="49.37991" lon="2.37867">
        <ele>142.19999694824</ele>
        <time>2015-08-30T09:25:16Z</time>
      </trkpt>
      <trkpt lat="49.37985" lon="2.37868">
        <ele>142.19999694824</ele>
        <time>2015-08-30T09:25:21Z</time>
      </trkpt>
      <trkpt lat="49.37979" lon="2.37873">
        <ele>142.80000305176</ele>
        <time>2015-08-30T09:25:25Z</time>
      </trkpt>
      <trkpt lat="49.37961" lon="2.37881">
        <ele>144.19999694824</ele>
        <time>2015-08-30T09:25:37Z</time>
      </trkpt>
      <trkpt lat="49.37942" lon="2.37886">
        <ele>145.60000610352</ele>
        <time>2015-08-30T09:25:46Z</time>
      </trkpt>
      <trkpt lat="49.37924" lon="2.37892">
        <ele>146.60000610352</ele>
        <time>2015-08-30T09:25:56Z</time>
      </trkpt>
      <trkpt lat="49.37906" lon="2.37893">
        <ele>147.60000610352</ele>
        <time>2015-08-30T09:26:03Z</time>
      </trkpt>
      <trkpt lat="49.3789" lon="2.37897">
        <ele>148.39999389648</ele>
        <time>2015-08-30T09:26:09Z</time>
      </trkpt>
      <trkpt lat="49.37872" lon="2.37905">
        <ele>149.39999389648</ele>
        <time>2015-08-30T09:26:16Z</time>
      </trkpt>
      <trkpt lat="49.37854" lon="2.37914">
        <ele>149.60000610352</ele>
        <time>2015-08-30T09:26:24Z</time>
      </trkpt>
      <trkpt lat="49.37836" lon="2.37913">
        <ele>149</ele>
        <time>2015-08-30T09:26:31Z</time>
      </trkpt>
      <trkpt lat="49.37816" lon="2.37908">
        <ele>148.19999694824</ele>
        <time>2015-08-30T09:26:38Z</time>
      </trkpt>
      <trkpt lat="49.37797" lon="2.37907">
        <ele>147.60000610352</ele>
        <time>2015-08-30T09:26:43Z</time>
      </trkpt>
      <trkpt lat="49.37778" lon="2.37906">
        <ele>147</ele>
        <time>2015-08-30T09:26:49Z</time>
      </trkpt>
      <trkpt lat="49.37758" lon="2.37902">
        <ele>147</ele>
        <time>2015-08-30T09:26:57Z</time>
      </trkpt>
      <trkpt lat="49.3774" lon="2.37897">
        <ele>146.60000610352</ele>
        <time>2015-08-30T09:27:03Z</time>
      </trkpt>
      <trkpt lat="49.37721" lon="2.37891">
        <ele>146.19999694824</ele>
        <time>2015-08-30T09:27:11Z</time>
      </trkpt>
      <trkpt lat="49.37704" lon="2.37886">
        <ele>146</ele>
        <time>2015-08-30T09:27:23Z</time>
      </trkpt>
      <trkpt lat="49.37685" lon="2.37895">
        <ele>145.19999694824</ele>
        <time>2015-08-30T09:27:32Z</time>
      </trkpt>
      <trkpt lat="49.37667" lon="2.37906">
        <ele>145.39999389648</ele>
        <time>2015-08-30T09:27:40Z</time>
      </trkpt>
      <trkpt lat="49.37648" lon="2.37916">
        <ele>145.80000305176</ele>
        <time>2015-08-30T09:27:49Z</time>
      </trkpt>
      <trkpt lat="49.37632" lon="2.3793">
        <ele>146.19999694824</ele>
        <time>2015-08-30T09:27:56Z</time>
      </trkpt>
      <trkpt lat="49.37617" lon="2.37952">
        <ele>147.39999389648</ele>
        <time>2015-08-30T09:28:02Z</time>
      </trkpt>
      <trkpt lat="49.37609" lon="2.37977">
        <ele>148</ele>
        <time>2015-08-30T09:28:08Z</time>
      </trkpt>
      <trkpt lat="49.37601" lon="2.38006">
        <ele>148.80000305176</ele>
        <time>2015-08-30T09:28:15Z</time>
      </trkpt>
      <trkpt lat="49.37593" lon="2.38032">
        <ele>150.19999694824</ele>
        <time>2015-08-30T09:28:22Z</time>
      </trkpt>
      <trkpt lat="49.3758" lon="2.38057">
        <ele>151.19999694824</ele>
        <time>2015-08-30T09:28:30Z</time>
      </trkpt>
      <trkpt lat="49.3757" lon="2.38081">
        <ele>151</ele>
        <time>2015-08-30T09:28:38Z</time>
      </trkpt>
      <trkpt lat="49.37558" lon="2.38103">
        <ele>150.19999694824</ele>
        <time>2015-08-30T09:28:45Z</time>
      </trkpt>
      <trkpt lat="49.37546" lon="2.38127">
        <ele>150</ele>
        <time>2015-08-30T09:28:52Z</time>
      </trkpt>
      <trkpt lat="49.37541" lon="2.38156">
        <ele>150</ele>
        <time>2015-08-30T09:28:59Z</time>
      </trkpt>
      <trkpt lat="49.37539" lon="2.38186">
        <ele>150.60000610352</ele>
        <time>2015-08-30T09:29:07Z</time>
      </trkpt>
      <trkpt lat="49.37538" lon="2.38214">
        <ele>151.60000610352</ele>
        <time>2015-08-30T09:29:14Z</time>
      </trkpt>
      <trkpt lat="49.37536" lon="2.38242">
        <ele>152.60000610352</ele>
        <time>2015-08-30T09:29:22Z</time>
      </trkpt>
      <trkpt lat="49.37537" lon="2.38248">
        <ele>152.80000305176</ele>
        <time>2015-08-30T09:29:24Z</time>
      </trkpt>
      <trkpt lat="49.37546" lon="2.38252">
        <ele>152.60000610352</ele>
        <time>2015-08-30T09:29:30Z</time>
      </trkpt>
      <trkpt lat="49.37565" lon="2.38255">
        <ele>151.80000305176</ele>
        <time>2015-08-30T09:29:38Z</time>
      </trkpt>
      <trkpt lat="49.37583" lon="2.38262">
        <ele>151.39999389648</ele>
        <time>2015-08-30T09:29:47Z</time>
      </trkpt>
      <trkpt lat="49.37601" lon="2.3826">
        <ele>150.60000610352</ele>
        <time>2015-08-30T09:29:57Z</time>
      </trkpt>
      <trkpt lat="49.37603" lon="2.38262">
        <ele>150.60000610352</ele>
        <time>2015-08-30T09:29:58Z</time>
      </trkpt>
      <trkpt lat="49.37614" lon="2.38269">
        <ele>150.19999694824</ele>
        <time>2015-08-30T09:30:04Z</time>
      </trkpt>
      <trkpt lat="49.37634" lon="2.38274">
        <ele>146.60000610352</ele>
        <time>2015-08-30T09:30:13Z</time>
      </trkpt>
      <trkpt lat="49.37653" lon="2.38285">
        <ele>143.19999694824</ele>
        <time>2015-08-30T09:30:20Z</time>
      </trkpt>
      <trkpt lat="49.37671" lon="2.38299">
        <ele>139.80000305176</ele>
        <time>2015-08-30T09:30:27Z</time>
      </trkpt>
      <trkpt lat="49.37679" lon="2.38308">
        <ele>138.39999389648</ele>
        <time>2015-08-30T09:30:31Z</time>
      </trkpt>
      <trkpt lat="49.37692" lon="2.38321">
        <ele>136</ele>
        <time>2015-08-30T09:30:38Z</time>
      </trkpt>
      <trkpt lat="49.37711" lon="2.38328">
        <ele>130.80000305176</ele>
        <time>2015-08-30T09:30:46Z</time>
      </trkpt>
      <trkpt lat="49.37727" lon="2.3834">
        <ele>125.40000152588</ele>
        <time>2015-08-30T09:30:52Z</time>
      </trkpt>
      <trkpt lat="49.37744" lon="2.38358">
        <ele>119.80000305176</ele>
        <time>2015-08-30T09:30:59Z</time>
      </trkpt>
      <trkpt lat="49.3776" lon="2.38373">
        <ele>114.59999847412</ele>
        <time>2015-08-30T09:31:06Z</time>
      </trkpt>
      <trkpt lat="49.37778" lon="2.38389">
        <ele>108.80000305176</ele>
        <time>2015-08-30T09:31:13Z</time>
      </trkpt>
      <trkpt lat="49.37792" lon="2.38407">
        <ele>106.40000152588</ele>
        <time>2015-08-30T09:31:19Z</time>
      </trkpt>
      <trkpt lat="49.37804" lon="2.3843">
        <ele>104.80000305176</ele>
        <time>2015-08-30T09:31:27Z</time>
      </trkpt>
      <trkpt lat="49.37811" lon="2.38435">
        <ele>104</ele>
        <time>2015-08-30T09:31:30Z</time>
      </trkpt>
      <trkpt lat="49.37827" lon="2.38454">
        <ele>102</ele>
        <time>2015-08-30T09:31:36Z</time>
      </trkpt>
      <trkpt lat="49.37828" lon="2.38466">
        <ele>101.59999847412</ele>
        <time>2015-08-30T09:31:39Z</time>
      </trkpt>
      <trkpt lat="49.37825" lon="2.38492">
        <ele>101</ele>
        <time>2015-08-30T09:31:46Z</time>
      </trkpt>
      <trkpt lat="49.37822" lon="2.38521">
        <ele>101.80000305176</ele>
        <time>2015-08-30T09:31:54Z</time>
      </trkpt>
      <trkpt lat="49.37819" lon="2.38529">
        <ele>102.40000152588</ele>
        <time>2015-08-30T09:31:57Z</time>
      </trkpt>
      <trkpt lat="49.37821" lon="2.38551">
        <ele>102.80000305176</ele>
        <time>2015-08-30T09:32:03Z</time>
      </trkpt>
      <trkpt lat="49.37822" lon="2.3858">
        <ele>103</ele>
        <time>2015-08-30T09:32:11Z</time>
      </trkpt>
      <trkpt lat="49.3782" lon="2.38612">
        <ele>103.19999694824</ele>
        <time>2015-08-30T09:32:20Z</time>
      </trkpt>
      <trkpt lat="49.37821" lon="2.3864">
        <ele>103.59999847412</ele>
        <time>2015-08-30T09:32:27Z</time>
      </trkpt>
      <trkpt lat="49.37835" lon="2.38661">
        <ele>102.80000305176</ele>
        <time>2015-08-30T09:32:35Z</time>
      </trkpt>
      <trkpt lat="49.37847" lon="2.38686">
        <ele>101.80000305176</ele>
        <time>2015-08-30T09:32:44Z</time>
      </trkpt>
      <trkpt lat="49.37847" lon="2.38715">
        <ele>101.59999847412</ele>
        <time>2015-08-30T09:32:54Z</time>
      </trkpt>
      <trkpt lat="49.37846" lon="2.38744">
        <ele>102.40000152588</ele>
        <time>2015-08-30T09:33:08Z</time>
      </trkpt>
      <trkpt lat="49.37848" lon="2.38748">
        <ele>102.40000152588</ele>
        <time>2015-08-30T09:33:10Z</time>
      </trkpt>
      <trkpt lat="49.37849" lon="2.38758">
        <ele>103.19999694824</ele>
        <time>2015-08-30T09:33:15Z</time>
      </trkpt>
      <trkpt lat="49.3785" lon="2.3877">
        <ele>104.19999694824</ele>
        <time>2015-08-30T09:33:21Z</time>
      </trkpt>
      <trkpt lat="49.37852" lon="2.38776">
        <ele>104.40000152588</ele>
        <time>2015-08-30T09:33:25Z</time>
      </trkpt>
      <trkpt lat="49.37852" lon="2.38777">
        <ele>104.80000305176</ele>
        <time>2015-08-30T09:33:27Z</time>
      </trkpt>
      <trkpt lat="49.37857" lon="2.38799">
        <ele>106</ele>
        <time>2015-08-30T09:33:41Z</time>
      </trkpt>
      <trkpt lat="49.37857" lon="2.38804">
        <ele>106.40000152588</ele>
        <time>2015-08-30T09:33:44Z</time>
      </trkpt>
      <trkpt lat="49.37855" lon="2.38823">
        <ele>108.59999847412</ele>
        <time>2015-08-30T09:33:56Z</time>
      </trkpt>
      <trkpt lat="49.37847" lon="2.38849">
        <ele>112</ele>
        <time>2015-08-30T09:34:12Z</time>
      </trkpt>
      <trkpt lat="49.37847" lon="2.3885">
        <ele>112</ele>
        <time>2015-08-30T09:34:13Z</time>
      </trkpt>
      <trkpt lat="49.37847" lon="2.38857">
        <ele>112.80000305176</ele>
        <time>2015-08-30T09:34:18Z</time>
      </trkpt>
      <trkpt lat="49.37851" lon="2.38863">
        <ele>113</ele>
        <time>2015-08-30T09:34:23Z</time>
      </trkpt>
      <trkpt lat="49.37854" lon="2.38869">
        <ele>113.40000152588</ele>
        <time>2015-08-30T09:34:29Z</time>
      </trkpt>
      <trkpt lat="49.37864" lon="2.38891">
        <ele>114.40000152588</ele>
        <time>2015-08-30T09:34:43Z</time>
      </trkpt>
      <trkpt lat="49.37878" lon="2.38913">
        <ele>114.59999847412</ele>
        <time>2015-08-30T09:34:50Z</time>
      </trkpt>
      <trkpt lat="49.37891" lon="2.3894">
        <ele>113.80000305176</ele>
        <time>2015-08-30T09:34:59Z</time>
      </trkpt>
      <trkpt lat="49.37904" lon="2.3896">
        <ele>112.40000152588</ele>
        <time>2015-08-30T09:35:05Z</time>
      </trkpt>
      <trkpt lat="49.3792" lon="2.38975">
        <ele>110.40000152588</ele>
        <time>2015-08-30T09:35:12Z</time>
      </trkpt>
      <trkpt lat="49.37928" lon="2.38978">
        <ele>109.40000152588</ele>
        <time>2015-08-30T09:35:16Z</time>
      </trkpt>
      <trkpt lat="49.37947" lon="2.38971">
        <ele>105.80000305176</ele>
        <time>2015-08-30T09:35:27Z</time>
      </trkpt>
      <trkpt lat="49.37965" lon="2.38965">
        <ele>103.40000152588</ele>
        <time>2015-08-30T09:35:36Z</time>
      </trkpt>
      <trkpt lat="49.37984" lon="2.38957">
        <ele>100.80000305176</ele>
        <time>2015-08-30T09:35:46Z</time>
      </trkpt>
      <trkpt lat="49.37994" lon="2.38958">
        <ele>99.400001525879</ele>
        <time>2015-08-30T09:35:53Z</time>
      </trkpt>
    </trkseg>
  </trk>
</gpx>